<?xml version="1.0" encoding="UTF-8"?>
<gpx version="1.1" creator="Endomondo.com" xsi:schemaLocation="http://www.topografix.com/GPX/1/1 http://www.topografix.com/GPX/1/1/gpx.xsd http://www.garmin.com/xmlschemas/GpxExtensions/v3 http://www.garmin.com/xmlschemas/GpxExtensionsv3.xsd http://www.garmin.com/xmlschemas/TrackPointExtension/v1 http://www.garmin.com/xmlschemas/TrackPointExtensionv1.xsd" xmlns="http://www.topografix.com/GPX/1/1" xmlns:gpxtpx="http://www.garmin.com/xmlschemas/TrackPointExtension/v1" xmlns:gpxx="http://www.garmin.com/xmlschemas/GpxExtensions/v3" xmlns:xsi="http://www.w3.org/2001/XMLSchema-instance">
  <metadata>
    <author>
      <name>Vladimir Lipets</name>
      <email id="lipets" domain="gmail.com"/>
    </author>
    <link href="http://www.endomondo.com">
      <text>Endomondo</text>
    </link>
    <time>2012-01-25T22:11:39Z</time>
    <bounds minlat="32.7743" minlon="35.012036" maxlat="32.771451" maxlon="35.013694"/>
  </metadata>
  <trk>
    <name>Froid, University</name>
    <cmt>15:40</cmt>
    <src>http://www.endomondo.com/</src>
    <link href="http://www.endomondo.com/workouts/qnTqVVSixHE">
      <text>Froid, University</text>
    </link>
    <type>MOUNTAIN_BIKING</type>
    <trkseg>
      <trkpt lat="32.7743" lon="35.012036">
        <time>2012-01-25T18:57:20Z</time>
      </trkpt>
      <trkpt lat="32.7743" lon="35.012036">
        <ele>107.0</ele>
        <time>2012-01-25T18:57:48Z</time>
      </trkpt>
      <trkpt lat="32.7743" lon="35.012036">
        <time>2012-01-25T18:57:59Z</time>
      </trkpt>
    </trkseg>
    <trkseg>
      <trkpt lat="32.7743" lon="35.012036">
        <time>2012-01-25T18:58:01Z</time>
      </trkpt>
      <trkpt lat="32.773123" lon="35.012865">
        <ele>374.0</ele>
        <time>2012-01-25T18:58:05Z</time>
      </trkpt>
      <trkpt lat="32.771783" lon="35.013531">
        <ele>329.0</ele>
        <time>2012-01-25T18:58:10Z</time>
      </trkpt>
      <trkpt lat="32.771474" lon="35.013707">
        <ele>338.0</ele>
        <time>2012-01-25T18:58:14Z</time>
      </trkpt>
      <trkpt lat="32.771408" lon="35.013687">
        <ele>339.0</ele>
        <time>2012-01-25T18:58:17Z</time>
      </trkpt>
      <trkpt lat="32.771408" lon="35.013687">
        <time>2012-01-25T18:58:28Z</time>
      </trkpt>
    </trkseg>
    <trkseg>
      <trkpt lat="32.771408" lon="35.013687">
        <time>2012-01-25T18:58:38Z</time>
      </trkpt>
      <trkpt lat="32.771408" lon="35.013687">
        <time>2012-01-25T18:58:49Z</time>
      </trkpt>
    </trkseg>
    <trkseg>
      <trkpt lat="32.771408" lon="35.013687">
        <time>2012-01-25T19:00:15Z</time>
      </trkpt>
      <trkpt lat="32.771786" lon="35.013715">
        <ele>337.0</ele>
        <time>2012-01-25T19:00:18Z</time>
      </trkpt>
      <trkpt lat="32.771926" lon="35.013719">
        <ele>337.0</ele>
        <time>2012-01-25T19:00:22Z</time>
      </trkpt>
      <trkpt lat="32.772039" lon="35.013715">
        <ele>337.0</ele>
        <time>2012-01-25T19:00:24Z</time>
      </trkpt>
      <trkpt lat="32.772286" lon="35.013704">
        <ele>336.0</ele>
        <time>2012-01-25T19:00:30Z</time>
      </trkpt>
      <trkpt lat="32.772448" lon="35.013684">
        <ele>336.0</ele>
        <time>2012-01-25T19:00:34Z</time>
      </trkpt>
      <trkpt lat="32.772616" lon="35.013646">
        <ele>336.0</ele>
        <time>2012-01-25T19:00:38Z</time>
      </trkpt>
      <trkpt lat="32.772952" lon="35.013431">
        <ele>336.0</ele>
        <time>2012-01-25T19:00:46Z</time>
      </trkpt>
      <trkpt lat="32.773153" lon="35.013287">
        <ele>336.0</ele>
        <time>2012-01-25T19:00:50Z</time>
      </trkpt>
      <trkpt lat="32.77334" lon="35.013204">
        <ele>335.0</ele>
        <time>2012-01-25T19:00:54Z</time>
      </trkpt>
      <trkpt lat="32.773514" lon="35.013037">
        <ele>334.0</ele>
        <time>2012-01-25T19:01:01Z</time>
      </trkpt>
      <trkpt lat="32.773575" lon="35.012944">
        <ele>334.0</ele>
        <time>2012-01-25T19:01:07Z</time>
      </trkpt>
      <trkpt lat="32.773475" lon="35.012814">
        <ele>334.0</ele>
        <time>2012-01-25T19:01:13Z</time>
      </trkpt>
      <trkpt lat="32.773351" lon="35.012708">
        <ele>333.0</ele>
        <time>2012-01-25T19:01:17Z</time>
      </trkpt>
      <trkpt lat="32.773239" lon="35.012603">
        <ele>332.0</ele>
        <time>2012-01-25T19:01:21Z</time>
      </trkpt>
      <trkpt lat="32.773154" lon="35.012477">
        <ele>332.0</ele>
        <time>2012-01-25T19:01:25Z</time>
      </trkpt>
      <trkpt lat="32.773104" lon="35.012222">
        <ele>332.0</ele>
        <time>2012-01-25T19:01:34Z</time>
      </trkpt>
      <trkpt lat="32.77307" lon="35.011868">
        <ele>332.0</ele>
        <time>2012-01-25T19:01:42Z</time>
      </trkpt>
      <trkpt lat="32.773077" lon="35.0117">
        <ele>332.0</ele>
        <time>2012-01-25T19:01:46Z</time>
      </trkpt>
      <trkpt lat="32.773129" lon="35.011525">
        <ele>330.0</ele>
        <time>2012-01-25T19:01:50Z</time>
      </trkpt>
      <trkpt lat="32.773232" lon="35.011375">
        <ele>329.0</ele>
        <time>2012-01-25T19:01:54Z</time>
      </trkpt>
      <trkpt lat="32.773351" lon="35.011264">
        <ele>328.0</ele>
        <time>2012-01-25T19:01:58Z</time>
      </trkpt>
      <trkpt lat="32.773481" lon="35.01114">
        <ele>328.0</ele>
        <time>2012-01-25T19:02:02Z</time>
      </trkpt>
      <trkpt lat="32.773617" lon="35.011016">
        <ele>329.0</ele>
        <time>2012-01-25T19:02:06Z</time>
      </trkpt>
      <trkpt lat="32.773772" lon="35.010932">
        <ele>329.0</ele>
        <time>2012-01-25T19:02:10Z</time>
      </trkpt>
      <trkpt lat="32.773835" lon="35.01088">
        <ele>329.0</ele>
        <time>2012-01-25T19:02:13Z</time>
      </trkpt>
      <trkpt lat="32.773835" lon="35.01088">
        <time>2012-01-25T19:02:24Z</time>
      </trkpt>
    </trkseg>
    <trkseg>
      <trkpt lat="32.773835" lon="35.01088">
        <time>2012-01-25T19:03:34Z</time>
      </trkpt>
      <trkpt lat="32.773941" lon="35.010773">
        <ele>329.0</ele>
        <time>2012-01-25T19:03:36Z</time>
      </trkpt>
      <trkpt lat="32.773904" lon="35.010363">
        <ele>328.0</ele>
        <time>2012-01-25T19:03:44Z</time>
      </trkpt>
      <trkpt lat="32.773878" lon="35.010276">
        <ele>327.0</ele>
        <time>2012-01-25T19:03:46Z</time>
      </trkpt>
      <trkpt lat="32.773853" lon="35.010103">
        <ele>327.0</ele>
        <time>2012-01-25T19:03:53Z</time>
      </trkpt>
      <trkpt lat="32.773853" lon="35.010103">
        <time>2012-01-25T19:04:04Z</time>
      </trkpt>
    </trkseg>
    <trkseg>
      <trkpt lat="32.773853" lon="35.010103">
        <time>2012-01-25T19:04:05Z</time>
      </trkpt>
      <trkpt lat="32.773857" lon="35.009931">
        <ele>327.0</ele>
        <time>2012-01-25T19:04:08Z</time>
      </trkpt>
      <trkpt lat="32.773861" lon="35.009856">
        <ele>327.0</ele>
        <time>2012-01-25T19:04:13Z</time>
      </trkpt>
      <trkpt lat="32.773826" lon="35.00971">
        <ele>326.0</ele>
        <time>2012-01-25T19:04:23Z</time>
      </trkpt>
      <trkpt lat="32.773826" lon="35.00971">
        <time>2012-01-25T19:04:35Z</time>
      </trkpt>
    </trkseg>
    <trkseg>
      <trkpt lat="32.773826" lon="35.00971">
        <time>2012-01-25T19:04:35Z</time>
      </trkpt>
      <trkpt lat="32.77364" lon="35.009408">
        <ele>326.0</ele>
        <time>2012-01-25T19:04:38Z</time>
      </trkpt>
      <trkpt lat="32.77359" lon="35.009359">
        <ele>327.0</ele>
        <time>2012-01-25T19:04:41Z</time>
      </trkpt>
      <trkpt lat="32.773523" lon="35.009318">
        <ele>327.0</ele>
        <time>2012-01-25T19:04:47Z</time>
      </trkpt>
      <trkpt lat="32.773454" lon="35.009288">
        <ele>327.0</ele>
        <time>2012-01-25T19:04:52Z</time>
      </trkpt>
      <trkpt lat="32.773372" lon="35.00926">
        <ele>327.0</ele>
        <time>2012-01-25T19:04:56Z</time>
      </trkpt>
      <trkpt lat="32.773274" lon="35.009239">
        <ele>327.0</ele>
        <time>2012-01-25T19:05:02Z</time>
      </trkpt>
      <trkpt lat="32.773274" lon="35.009239">
        <time>2012-01-25T19:05:14Z</time>
      </trkpt>
    </trkseg>
    <trkseg>
      <trkpt lat="32.773274" lon="35.009239">
        <time>2012-01-25T19:05:15Z</time>
      </trkpt>
      <trkpt lat="32.772989" lon="35.009188">
        <ele>327.0</ele>
        <time>2012-01-25T19:05:19Z</time>
      </trkpt>
      <trkpt lat="32.772916" lon="35.009174">
        <ele>327.0</ele>
        <time>2012-01-25T19:05:24Z</time>
      </trkpt>
      <trkpt lat="32.772843" lon="35.009155">
        <ele>327.0</ele>
        <time>2012-01-25T19:05:29Z</time>
      </trkpt>
      <trkpt lat="32.772773" lon="35.009131">
        <ele>327.0</ele>
        <time>2012-01-25T19:05:34Z</time>
      </trkpt>
      <trkpt lat="32.772709" lon="35.009105">
        <ele>327.0</ele>
        <time>2012-01-25T19:05:39Z</time>
      </trkpt>
      <trkpt lat="32.77265" lon="35.009072">
        <ele>327.0</ele>
        <time>2012-01-25T19:05:42Z</time>
      </trkpt>
      <trkpt lat="32.772579" lon="35.009026">
        <ele>327.0</ele>
        <time>2012-01-25T19:05:47Z</time>
      </trkpt>
      <trkpt lat="32.772507" lon="35.008976">
        <ele>327.0</ele>
        <time>2012-01-25T19:05:52Z</time>
      </trkpt>
      <trkpt lat="32.772386" lon="35.008901">
        <ele>327.0</ele>
        <time>2012-01-25T19:06:00Z</time>
      </trkpt>
      <trkpt lat="32.772329" lon="35.008869">
        <ele>328.0</ele>
        <time>2012-01-25T19:06:04Z</time>
      </trkpt>
      <trkpt lat="32.772239" lon="35.008824">
        <ele>328.0</ele>
        <time>2012-01-25T19:06:07Z</time>
      </trkpt>
      <trkpt lat="32.772239" lon="35.008824">
        <time>2012-01-25T19:06:19Z</time>
      </trkpt>
    </trkseg>
    <trkseg>
      <trkpt lat="32.772239" lon="35.008824">
        <time>2012-01-25T19:06:22Z</time>
      </trkpt>
      <trkpt lat="32.77187" lon="35.008711">
        <ele>328.0</ele>
        <time>2012-01-25T19:06:28Z</time>
      </trkpt>
      <trkpt lat="32.771802" lon="35.008698">
        <ele>328.0</ele>
        <time>2012-01-25T19:06:31Z</time>
      </trkpt>
      <trkpt lat="32.771802" lon="35.008698">
        <time>2012-01-25T19:06:43Z</time>
      </trkpt>
    </trkseg>
    <trkseg>
      <trkpt lat="32.771802" lon="35.008698">
        <time>2012-01-25T19:06:47Z</time>
      </trkpt>
      <trkpt lat="32.771433" lon="35.008556">
        <ele>328.0</ele>
        <time>2012-01-25T19:06:53Z</time>
      </trkpt>
      <trkpt lat="32.771367" lon="35.008538">
        <ele>329.0</ele>
        <time>2012-01-25T19:06:56Z</time>
      </trkpt>
      <trkpt lat="32.771304" lon="35.008527">
        <ele>329.0</ele>
        <time>2012-01-25T19:06:59Z</time>
      </trkpt>
      <trkpt lat="32.771223" lon="35.008517">
        <ele>329.0</ele>
        <time>2012-01-25T19:07:03Z</time>
      </trkpt>
      <trkpt lat="32.771146" lon="35.008507">
        <ele>330.0</ele>
        <time>2012-01-25T19:07:07Z</time>
      </trkpt>
      <trkpt lat="32.771073" lon="35.008496">
        <ele>330.0</ele>
        <time>2012-01-25T19:07:11Z</time>
      </trkpt>
      <trkpt lat="32.771004" lon="35.008484">
        <ele>330.0</ele>
        <time>2012-01-25T19:07:15Z</time>
      </trkpt>
      <trkpt lat="32.770936" lon="35.008471">
        <ele>330.0</ele>
        <time>2012-01-25T19:07:19Z</time>
      </trkpt>
      <trkpt lat="32.770868" lon="35.008455">
        <ele>331.0</ele>
        <time>2012-01-25T19:07:23Z</time>
      </trkpt>
      <trkpt lat="32.770803" lon="35.008425">
        <ele>331.0</ele>
        <time>2012-01-25T19:07:27Z</time>
      </trkpt>
      <trkpt lat="32.770646" lon="35.008161">
        <ele>332.0</ele>
        <time>2012-01-25T19:07:41Z</time>
      </trkpt>
      <trkpt lat="32.770679" lon="35.007996">
        <ele>332.0</ele>
        <time>2012-01-25T19:07:45Z</time>
      </trkpt>
      <trkpt lat="32.77077" lon="35.007852">
        <ele>332.001</ele>
        <time>2012-01-25T19:07:49Z</time>
      </trkpt>
      <trkpt lat="32.770913" lon="35.007764">
        <ele>332.001</ele>
        <time>2012-01-25T19:07:53Z</time>
      </trkpt>
      <trkpt lat="32.771102" lon="35.00774">
        <ele>332.0</ele>
        <time>2012-01-25T19:07:57Z</time>
      </trkpt>
      <trkpt lat="32.771452" lon="35.007655">
        <ele>331.0</ele>
        <time>2012-01-25T19:08:09Z</time>
      </trkpt>
      <trkpt lat="32.771537" lon="35.007634">
        <ele>331.0</ele>
        <time>2012-01-25T19:08:12Z</time>
      </trkpt>
      <trkpt lat="32.771623" lon="35.00762">
        <ele>331.0</ele>
        <time>2012-01-25T19:08:15Z</time>
      </trkpt>
      <trkpt lat="32.7718" lon="35.007617">
        <ele>331.0</ele>
        <time>2012-01-25T19:08:21Z</time>
      </trkpt>
      <trkpt lat="32.771885" lon="35.007633">
        <ele>331.0</ele>
        <time>2012-01-25T19:08:24Z</time>
      </trkpt>
      <trkpt lat="32.771973" lon="35.00765">
        <ele>332.0</ele>
        <time>2012-01-25T19:08:27Z</time>
      </trkpt>
      <trkpt lat="32.772039" lon="35.007658">
        <ele>332.0</ele>
        <time>2012-01-25T19:08:29Z</time>
      </trkpt>
      <trkpt lat="32.772384" lon="35.007705">
        <ele>332.0</ele>
        <time>2012-01-25T19:08:41Z</time>
      </trkpt>
      <trkpt lat="32.772553" lon="35.007696">
        <ele>332.0</ele>
        <time>2012-01-25T19:08:47Z</time>
      </trkpt>
      <trkpt lat="32.772635" lon="35.007684">
        <ele>332.0</ele>
        <time>2012-01-25T19:08:50Z</time>
      </trkpt>
      <trkpt lat="32.772863" lon="35.007618">
        <ele>332.0</ele>
        <time>2012-01-25T19:08:59Z</time>
      </trkpt>
      <trkpt lat="32.773004" lon="35.007549">
        <ele>332.0</ele>
        <time>2012-01-25T19:09:05Z</time>
      </trkpt>
      <trkpt lat="32.773073" lon="35.00751">
        <ele>332.0</ele>
        <time>2012-01-25T19:09:08Z</time>
      </trkpt>
      <trkpt lat="32.773268" lon="35.00736">
        <ele>332.0</ele>
        <time>2012-01-25T19:09:17Z</time>
      </trkpt>
      <trkpt lat="32.773328" lon="35.007304">
        <ele>332.0</ele>
        <time>2012-01-25T19:09:20Z</time>
      </trkpt>
      <trkpt lat="32.773382" lon="35.007241">
        <ele>332.0</ele>
        <time>2012-01-25T19:09:23Z</time>
      </trkpt>
      <trkpt lat="32.773513" lon="35.007006">
        <ele>332.0</ele>
        <time>2012-01-25T19:09:32Z</time>
      </trkpt>
      <trkpt lat="32.773541" lon="35.006918">
        <ele>333.0</ele>
        <time>2012-01-25T19:09:35Z</time>
      </trkpt>
      <trkpt lat="32.773574" lon="35.006728">
        <ele>333.0</ele>
        <time>2012-01-25T19:09:41Z</time>
      </trkpt>
      <trkpt lat="32.77358" lon="35.006634">
        <ele>333.0</ele>
        <time>2012-01-25T19:09:44Z</time>
      </trkpt>
      <trkpt lat="32.773569" lon="35.006536">
        <ele>333.0</ele>
        <time>2012-01-25T19:09:47Z</time>
      </trkpt>
      <trkpt lat="32.773521" lon="35.006338">
        <ele>333.0</ele>
        <time>2012-01-25T19:09:53Z</time>
      </trkpt>
      <trkpt lat="32.773493" lon="35.006241">
        <ele>333.0</ele>
        <time>2012-01-25T19:09:56Z</time>
      </trkpt>
      <trkpt lat="32.773467" lon="35.006143">
        <ele>333.0</ele>
        <time>2012-01-25T19:09:59Z</time>
      </trkpt>
      <trkpt lat="32.773429" lon="35.00595">
        <ele>333.0</ele>
        <time>2012-01-25T19:10:05Z</time>
      </trkpt>
      <trkpt lat="32.773404" lon="35.005869">
        <ele>333.0</ele>
        <time>2012-01-25T19:10:08Z</time>
      </trkpt>
      <trkpt lat="32.773422" lon="35.005778">
        <ele>333.0</ele>
        <time>2012-01-25T19:10:12Z</time>
      </trkpt>
      <trkpt lat="32.773471" lon="35.005697">
        <ele>334.0</ele>
        <time>2012-01-25T19:10:16Z</time>
      </trkpt>
      <trkpt lat="32.773515" lon="35.005632">
        <ele>334.0</ele>
        <time>2012-01-25T19:10:19Z</time>
      </trkpt>
      <trkpt lat="32.773627" lon="35.00549">
        <ele>334.0</ele>
        <time>2012-01-25T19:10:25Z</time>
      </trkpt>
      <trkpt lat="32.773687" lon="35.005412">
        <ele>334.0</ele>
        <time>2012-01-25T19:10:28Z</time>
      </trkpt>
      <trkpt lat="32.773747" lon="35.005327">
        <ele>334.0</ele>
        <time>2012-01-25T19:10:31Z</time>
      </trkpt>
      <trkpt lat="32.773872" lon="35.005126">
        <ele>335.0</ele>
        <time>2012-01-25T19:10:37Z</time>
      </trkpt>
      <trkpt lat="32.773974" lon="35.00498">
        <ele>335.0</ele>
        <time>2012-01-25T19:10:41Z</time>
      </trkpt>
      <trkpt lat="32.774064" lon="35.004827">
        <ele>336.0</ele>
        <time>2012-01-25T19:10:45Z</time>
      </trkpt>
      <trkpt lat="32.77414" lon="35.004679">
        <ele>336.0</ele>
        <time>2012-01-25T19:10:49Z</time>
      </trkpt>
      <trkpt lat="32.774221" lon="35.004541">
        <ele>336.0</ele>
        <time>2012-01-25T19:10:53Z</time>
      </trkpt>
      <trkpt lat="32.77438" lon="35.00439">
        <ele>338.0</ele>
        <time>2012-01-25T19:10:57Z</time>
      </trkpt>
      <trkpt lat="32.774455" lon="35.004338">
        <ele>338.0</ele>
        <time>2012-01-25T19:10:59Z</time>
      </trkpt>
      <trkpt lat="32.774682" lon="35.004129">
        <ele>338.0</ele>
        <time>2012-01-25T19:11:05Z</time>
      </trkpt>
      <trkpt lat="32.774749" lon="35.004033">
        <ele>337.0</ele>
        <time>2012-01-25T19:11:07Z</time>
      </trkpt>
      <trkpt lat="32.774814" lon="35.003928">
        <ele>337.0</ele>
        <time>2012-01-25T19:11:09Z</time>
      </trkpt>
      <trkpt lat="32.774902" lon="35.00369">
        <ele>336.0</ele>
        <time>2012-01-25T19:11:13Z</time>
      </trkpt>
      <trkpt lat="32.774995" lon="35.003442">
        <ele>336.0</ele>
        <time>2012-01-25T19:11:17Z</time>
      </trkpt>
      <trkpt lat="32.775031" lon="35.003348">
        <ele>336.0</ele>
        <time>2012-01-25T19:11:19Z</time>
      </trkpt>
      <trkpt lat="32.775204" lon="35.003063">
        <ele>336.0</ele>
        <time>2012-01-25T19:11:28Z</time>
      </trkpt>
      <trkpt lat="32.775234" lon="35.002986">
        <ele>336.0</ele>
        <time>2012-01-25T19:11:30Z</time>
      </trkpt>
      <trkpt lat="32.775315" lon="35.002755">
        <ele>336.0</ele>
        <time>2012-01-25T19:11:36Z</time>
      </trkpt>
      <trkpt lat="32.775356" lon="35.002656">
        <ele>336.0</ele>
        <time>2012-01-25T19:11:39Z</time>
      </trkpt>
      <trkpt lat="32.7754" lon="35.002564">
        <ele>336.0</ele>
        <time>2012-01-25T19:11:42Z</time>
      </trkpt>
      <trkpt lat="32.775542" lon="35.00236">
        <ele>336.0</ele>
        <time>2012-01-25T19:11:51Z</time>
      </trkpt>
      <trkpt lat="32.775854" lon="35.002238">
        <ele>336.0</ele>
        <time>2012-01-25T19:12:00Z</time>
      </trkpt>
      <trkpt lat="32.775968" lon="35.002112">
        <ele>336.0</ele>
        <time>2012-01-25T19:12:04Z</time>
      </trkpt>
      <trkpt lat="32.776064" lon="35.001964">
        <ele>336.0</ele>
        <time>2012-01-25T19:12:09Z</time>
      </trkpt>
      <trkpt lat="32.776137" lon="35.001928">
        <ele>336.0</ele>
        <time>2012-01-25T19:12:12Z</time>
      </trkpt>
      <trkpt lat="32.776203" lon="35.001894">
        <ele>336.0</ele>
        <time>2012-01-25T19:12:15Z</time>
      </trkpt>
      <trkpt lat="32.776203" lon="35.001894">
        <time>2012-01-25T19:12:27Z</time>
      </trkpt>
    </trkseg>
    <trkseg>
      <trkpt lat="32.776203" lon="35.001894">
        <time>2012-01-25T19:12:30Z</time>
      </trkpt>
      <trkpt lat="32.776531" lon="35.001709">
        <ele>337.0</ele>
        <time>2012-01-25T19:12:37Z</time>
      </trkpt>
      <trkpt lat="32.776603" lon="35.001661">
        <ele>337.0</ele>
        <time>2012-01-25T19:12:41Z</time>
      </trkpt>
      <trkpt lat="32.776678" lon="35.00161">
        <ele>337.0</ele>
        <time>2012-01-25T19:12:43Z</time>
      </trkpt>
      <trkpt lat="32.776844" lon="35.001503">
        <ele>337.0</ele>
        <time>2012-01-25T19:12:50Z</time>
      </trkpt>
      <trkpt lat="32.77704" lon="35.001295">
        <ele>338.0</ele>
        <time>2012-01-25T19:12:59Z</time>
      </trkpt>
      <trkpt lat="32.777097" lon="35.001223">
        <ele>338.0</ele>
        <time>2012-01-25T19:13:02Z</time>
      </trkpt>
      <trkpt lat="32.777204" lon="35.001087">
        <ele>338.0</ele>
        <time>2012-01-25T19:13:08Z</time>
      </trkpt>
      <trkpt lat="32.777252" lon="35.001016">
        <ele>338.0</ele>
        <time>2012-01-25T19:13:11Z</time>
      </trkpt>
      <trkpt lat="32.777353" lon="35.00088">
        <ele>338.0</ele>
        <time>2012-01-25T19:13:17Z</time>
      </trkpt>
      <trkpt lat="32.777408" lon="35.000807">
        <ele>338.0</ele>
        <time>2012-01-25T19:13:20Z</time>
      </trkpt>
      <trkpt lat="32.777465" lon="35.000733">
        <ele>338.0</ele>
        <time>2012-01-25T19:13:23Z</time>
      </trkpt>
      <trkpt lat="32.777585" lon="35.000594">
        <ele>338.0</ele>
        <time>2012-01-25T19:13:29Z</time>
      </trkpt>
      <trkpt lat="32.777641" lon="35.000526">
        <ele>338.0</ele>
        <time>2012-01-25T19:13:32Z</time>
      </trkpt>
      <trkpt lat="32.777692" lon="35.000458">
        <ele>338.0</ele>
        <time>2012-01-25T19:13:35Z</time>
      </trkpt>
      <trkpt lat="32.777779" lon="35.000314">
        <ele>338.0</ele>
        <time>2012-01-25T19:13:41Z</time>
      </trkpt>
      <trkpt lat="32.777815" lon="35.00025">
        <ele>338.0</ele>
        <time>2012-01-25T19:13:47Z</time>
      </trkpt>
      <trkpt lat="32.777855" lon="35.000178">
        <ele>338.0</ele>
        <time>2012-01-25T19:13:52Z</time>
      </trkpt>
      <trkpt lat="32.777855" lon="35.000178">
        <time>2012-01-25T19:14:04Z</time>
      </trkpt>
    </trkseg>
    <trkseg>
      <trkpt lat="32.777855" lon="35.000178">
        <time>2012-01-25T19:14:08Z</time>
      </trkpt>
      <trkpt lat="32.777886" lon="35.000008">
        <ele>339.0</ele>
        <time>2012-01-25T19:14:09Z</time>
      </trkpt>
      <trkpt lat="32.777898" lon="34.999897">
        <ele>339.0</ele>
        <time>2012-01-25T19:14:11Z</time>
      </trkpt>
      <trkpt lat="32.778" lon="34.999646">
        <ele>340.0</ele>
        <time>2012-01-25T19:14:19Z</time>
      </trkpt>
      <trkpt lat="32.778047" lon="34.999566">
        <ele>340.0</ele>
        <time>2012-01-25T19:14:21Z</time>
      </trkpt>
      <trkpt lat="32.778196" lon="34.999334">
        <ele>342.0</ele>
        <time>2012-01-25T19:14:27Z</time>
      </trkpt>
      <trkpt lat="32.778254" lon="34.999256">
        <ele>343.0</ele>
        <time>2012-01-25T19:14:29Z</time>
      </trkpt>
      <trkpt lat="32.778451" lon="34.999029">
        <ele>345.0</ele>
        <time>2012-01-25T19:14:34Z</time>
      </trkpt>
      <trkpt lat="32.778637" lon="34.998737">
        <ele>346.0</ele>
        <time>2012-01-25T19:14:39Z</time>
      </trkpt>
      <trkpt lat="32.778781" lon="34.998461">
        <ele>346.0</ele>
        <time>2012-01-25T19:14:43Z</time>
      </trkpt>
      <trkpt lat="32.77893" lon="34.998196">
        <ele>346.0</ele>
        <time>2012-01-25T19:14:47Z</time>
      </trkpt>
      <trkpt lat="32.779085" lon="34.997951">
        <ele>346.0</ele>
        <time>2012-01-25T19:14:51Z</time>
      </trkpt>
      <trkpt lat="32.779214" lon="34.997769">
        <ele>346.0</ele>
        <time>2012-01-25T19:14:54Z</time>
      </trkpt>
      <trkpt lat="32.779448" lon="34.997436">
        <ele>346.0</ele>
        <time>2012-01-25T19:14:59Z</time>
      </trkpt>
      <trkpt lat="32.779672" lon="34.997133">
        <ele>346.0</ele>
        <time>2012-01-25T19:15:03Z</time>
      </trkpt>
      <trkpt lat="32.779894" lon="34.996823">
        <ele>345.0</ele>
        <time>2012-01-25T19:15:07Z</time>
      </trkpt>
      <trkpt lat="32.780108" lon="34.996488">
        <ele>346.0</ele>
        <time>2012-01-25T19:15:11Z</time>
      </trkpt>
      <trkpt lat="32.780319" lon="34.996175">
        <ele>346.0</ele>
        <time>2012-01-25T19:15:15Z</time>
      </trkpt>
      <trkpt lat="32.780565" lon="34.995879">
        <ele>347.0</ele>
        <time>2012-01-25T19:15:19Z</time>
      </trkpt>
      <trkpt lat="32.780849" lon="34.995606">
        <ele>347.0</ele>
        <time>2012-01-25T19:15:23Z</time>
      </trkpt>
      <trkpt lat="32.78114" lon="34.995377">
        <ele>346.0</ele>
        <time>2012-01-25T19:15:27Z</time>
      </trkpt>
      <trkpt lat="32.781343" lon="34.99521">
        <ele>346.0</ele>
        <time>2012-01-25T19:15:30Z</time>
      </trkpt>
      <trkpt lat="32.781606" lon="34.994984">
        <ele>345.0</ele>
        <time>2012-01-25T19:15:34Z</time>
      </trkpt>
      <trkpt lat="32.781672" lon="34.994928">
        <ele>345.0</ele>
        <time>2012-01-25T19:15:35Z</time>
      </trkpt>
      <trkpt lat="32.781938" lon="34.994707">
        <ele>345.0</ele>
        <time>2012-01-25T19:15:39Z</time>
      </trkpt>
      <trkpt lat="32.782201" lon="34.994441">
        <ele>345.0</ele>
        <time>2012-01-25T19:15:43Z</time>
      </trkpt>
      <trkpt lat="32.782401" lon="34.994202">
        <ele>346.0</ele>
        <time>2012-01-25T19:15:46Z</time>
      </trkpt>
      <trkpt lat="32.782728" lon="34.993801">
        <ele>345.0</ele>
        <time>2012-01-25T19:15:51Z</time>
      </trkpt>
      <trkpt lat="32.783033" lon="34.993521">
        <ele>345.0</ele>
        <time>2012-01-25T19:15:55Z</time>
      </trkpt>
      <trkpt lat="32.783361" lon="34.993221">
        <ele>346.0</ele>
        <time>2012-01-25T19:15:59Z</time>
      </trkpt>
      <trkpt lat="32.783605" lon="34.992956">
        <ele>346.0</ele>
        <time>2012-01-25T19:16:02Z</time>
      </trkpt>
      <trkpt lat="32.783868" lon="34.99259">
        <ele>345.0</ele>
        <time>2012-01-25T19:16:06Z</time>
      </trkpt>
      <trkpt lat="32.784089" lon="34.992221">
        <ele>344.0</ele>
        <time>2012-01-25T19:16:10Z</time>
      </trkpt>
      <trkpt lat="32.784271" lon="34.991829">
        <ele>344.0</ele>
        <time>2012-01-25T19:16:14Z</time>
      </trkpt>
      <trkpt lat="32.784402" lon="34.991392">
        <ele>343.0</ele>
        <time>2012-01-25T19:16:18Z</time>
      </trkpt>
      <trkpt lat="32.784471" lon="34.99113">
        <ele>343.0</ele>
        <time>2012-01-25T19:16:21Z</time>
      </trkpt>
      <trkpt lat="32.784555" lon="34.990887">
        <ele>345.0</ele>
        <time>2012-01-25T19:16:25Z</time>
      </trkpt>
      <trkpt lat="32.784593" lon="34.990777">
        <ele>345.0</ele>
        <time>2012-01-25T19:16:27Z</time>
      </trkpt>
      <trkpt lat="32.784554" lon="34.990028">
        <ele>346.0</ele>
        <time>2012-01-25T19:16:34Z</time>
      </trkpt>
      <trkpt lat="32.784481" lon="34.989597">
        <ele>347.0</ele>
        <time>2012-01-25T19:16:38Z</time>
      </trkpt>
      <trkpt lat="32.784427" lon="34.989331">
        <ele>347.0</ele>
        <time>2012-01-25T19:16:41Z</time>
      </trkpt>
      <trkpt lat="32.784229" lon="34.989186">
        <ele>347.0</ele>
        <time>2012-01-25T19:16:45Z</time>
      </trkpt>
      <trkpt lat="32.783753" lon="34.989176">
        <ele>346.0</ele>
        <time>2012-01-25T19:16:49Z</time>
      </trkpt>
      <trkpt lat="32.783354" lon="34.989045">
        <ele>346.0</ele>
        <time>2012-01-25T19:16:54Z</time>
      </trkpt>
      <trkpt lat="32.783169" lon="34.988837">
        <ele>345.0</ele>
        <time>2012-01-25T19:16:58Z</time>
      </trkpt>
      <trkpt lat="32.782949" lon="34.988476">
        <ele>345.0</ele>
        <time>2012-01-25T19:17:02Z</time>
      </trkpt>
      <trkpt lat="32.782868" lon="34.988084">
        <ele>348.0</ele>
        <time>2012-01-25T19:17:06Z</time>
      </trkpt>
      <trkpt lat="32.782899" lon="34.987995">
        <ele>348.0</ele>
        <time>2012-01-25T19:17:10Z</time>
      </trkpt>
      <trkpt lat="32.783033" lon="34.98781">
        <ele>348.0</ele>
        <time>2012-01-25T19:17:14Z</time>
      </trkpt>
      <trkpt lat="32.783208" lon="34.987612">
        <ele>349.0</ele>
        <time>2012-01-25T19:17:18Z</time>
      </trkpt>
      <trkpt lat="32.783364" lon="34.987492">
        <ele>349.0</ele>
        <time>2012-01-25T19:17:22Z</time>
      </trkpt>
      <trkpt lat="32.783364" lon="34.987492">
        <time>2012-01-25T19:17:33Z</time>
      </trkpt>
    </trkseg>
    <trkseg>
      <trkpt lat="32.783364" lon="34.987492">
        <time>2012-01-25T19:17:41Z</time>
      </trkpt>
      <trkpt lat="32.78339" lon="34.987358">
        <ele>349.0</ele>
        <time>2012-01-25T19:17:47Z</time>
      </trkpt>
      <trkpt lat="32.783345" lon="34.987292">
        <ele>349.0</ele>
        <time>2012-01-25T19:17:50Z</time>
      </trkpt>
      <trkpt lat="32.783345" lon="34.987292">
        <time>2012-01-25T19:18:02Z</time>
      </trkpt>
    </trkseg>
    <trkseg>
      <trkpt lat="32.783345" lon="34.987292">
        <time>2012-01-25T19:18:25Z</time>
      </trkpt>
      <trkpt lat="32.782942" lon="34.987455">
        <ele>344.0</ele>
        <time>2012-01-25T19:18:29Z</time>
      </trkpt>
      <trkpt lat="32.782706" lon="34.987604">
        <ele>345.0</ele>
        <time>2012-01-25T19:18:35Z</time>
      </trkpt>
      <trkpt lat="32.782492" lon="34.987784">
        <ele>346.0</ele>
        <time>2012-01-25T19:18:41Z</time>
      </trkpt>
      <trkpt lat="32.782351" lon="34.987889">
        <ele>347.0</ele>
        <time>2012-01-25T19:18:45Z</time>
      </trkpt>
      <trkpt lat="32.782035" lon="34.988074">
        <ele>347.0</ele>
        <time>2012-01-25T19:18:53Z</time>
      </trkpt>
      <trkpt lat="32.781882" lon="34.988139">
        <ele>348.0</ele>
        <time>2012-01-25T19:18:57Z</time>
      </trkpt>
      <trkpt lat="32.781612" lon="34.988226">
        <ele>348.0</ele>
        <time>2012-01-25T19:19:05Z</time>
      </trkpt>
      <trkpt lat="32.781463" lon="34.988221">
        <ele>348.0</ele>
        <time>2012-01-25T19:19:09Z</time>
      </trkpt>
      <trkpt lat="32.781294" lon="34.988084">
        <ele>348.0</ele>
        <time>2012-01-25T19:19:13Z</time>
      </trkpt>
      <trkpt lat="32.781137" lon="34.987905">
        <ele>348.0</ele>
        <time>2012-01-25T19:19:17Z</time>
      </trkpt>
      <trkpt lat="32.781005" lon="34.987826">
        <ele>348.0</ele>
        <time>2012-01-25T19:19:21Z</time>
      </trkpt>
      <trkpt lat="32.78093" lon="34.987772">
        <ele>349.0</ele>
        <time>2012-01-25T19:19:24Z</time>
      </trkpt>
      <trkpt lat="32.780803" lon="34.987728">
        <ele>349.0</ele>
        <time>2012-01-25T19:19:28Z</time>
      </trkpt>
      <trkpt lat="32.780738" lon="34.987774">
        <ele>349.0</ele>
        <time>2012-01-25T19:19:30Z</time>
      </trkpt>
      <trkpt lat="32.780527" lon="34.98798">
        <ele>348.0</ele>
        <time>2012-01-25T19:19:40Z</time>
      </trkpt>
      <trkpt lat="32.780409" lon="34.9882">
        <ele>346.0</ele>
        <time>2012-01-25T19:19:44Z</time>
      </trkpt>
      <trkpt lat="32.780312" lon="34.988462">
        <ele>345.0</ele>
        <time>2012-01-25T19:19:48Z</time>
      </trkpt>
      <trkpt lat="32.780233" lon="34.988719">
        <ele>347.0</ele>
        <time>2012-01-25T19:19:52Z</time>
      </trkpt>
      <trkpt lat="32.780158" lon="34.988946">
        <ele>347.0</ele>
        <time>2012-01-25T19:19:56Z</time>
      </trkpt>
      <trkpt lat="32.780014" lon="34.989108">
        <ele>348.0</ele>
        <time>2012-01-25T19:20:00Z</time>
      </trkpt>
      <trkpt lat="32.77997" lon="34.989192">
        <ele>348.0</ele>
        <time>2012-01-25T19:20:04Z</time>
      </trkpt>
      <trkpt lat="32.779917" lon="34.989233">
        <ele>348.0</ele>
        <time>2012-01-25T19:20:07Z</time>
      </trkpt>
      <trkpt lat="32.779744" lon="34.989163">
        <ele>348.0</ele>
        <time>2012-01-25T19:20:13Z</time>
      </trkpt>
      <trkpt lat="32.779649" lon="34.989132">
        <ele>348.0</ele>
        <time>2012-01-25T19:20:16Z</time>
      </trkpt>
      <trkpt lat="32.779448" lon="34.989014">
        <ele>348.0</ele>
        <time>2012-01-25T19:20:26Z</time>
      </trkpt>
      <trkpt lat="32.779381" lon="34.98897">
        <ele>348.0</ele>
        <time>2012-01-25T19:20:31Z</time>
      </trkpt>
      <trkpt lat="32.779253" lon="34.988866">
        <ele>348.0</ele>
        <time>2012-01-25T19:20:36Z</time>
      </trkpt>
      <trkpt lat="32.779154" lon="34.988752">
        <ele>348.0</ele>
        <time>2012-01-25T19:20:40Z</time>
      </trkpt>
      <trkpt lat="32.779084" lon="34.988597">
        <ele>348.0</ele>
        <time>2012-01-25T19:20:44Z</time>
      </trkpt>
      <trkpt lat="32.77903" lon="34.988417">
        <ele>348.0</ele>
        <time>2012-01-25T19:20:48Z</time>
      </trkpt>
      <trkpt lat="32.778969" lon="34.988244">
        <ele>348.0</ele>
        <time>2012-01-25T19:20:52Z</time>
      </trkpt>
      <trkpt lat="32.778902" lon="34.988075">
        <ele>347.0</ele>
        <time>2012-01-25T19:20:56Z</time>
      </trkpt>
      <trkpt lat="32.778816" lon="34.987948">
        <ele>347.0</ele>
        <time>2012-01-25T19:21:00Z</time>
      </trkpt>
      <trkpt lat="32.778749" lon="34.987815">
        <ele>347.0</ele>
        <time>2012-01-25T19:21:04Z</time>
      </trkpt>
      <trkpt lat="32.778704" lon="34.987637">
        <ele>347.0</ele>
        <time>2012-01-25T19:21:08Z</time>
      </trkpt>
      <trkpt lat="32.778652" lon="34.987469">
        <ele>346.0</ele>
        <time>2012-01-25T19:21:12Z</time>
      </trkpt>
      <trkpt lat="32.77858" lon="34.987326">
        <ele>346.0</ele>
        <time>2012-01-25T19:21:17Z</time>
      </trkpt>
      <trkpt lat="32.778481" lon="34.987202">
        <ele>345.0</ele>
        <time>2012-01-25T19:21:21Z</time>
      </trkpt>
      <trkpt lat="32.778334" lon="34.987068">
        <ele>345.0</ele>
        <time>2012-01-25T19:21:25Z</time>
      </trkpt>
      <trkpt lat="32.778334" lon="34.987068">
        <time>2012-01-25T19:21:36Z</time>
      </trkpt>
    </trkseg>
    <trkseg>
      <trkpt lat="32.778334" lon="34.987068">
        <time>2012-01-25T19:21:40Z</time>
      </trkpt>
      <trkpt lat="32.778334" lon="34.987068">
        <time>2012-01-25T19:21:51Z</time>
      </trkpt>
    </trkseg>
    <trkseg>
      <trkpt lat="32.778334" lon="34.987068">
        <time>2012-01-25T19:21:55Z</time>
      </trkpt>
      <trkpt lat="32.7779" lon="34.986669">
        <ele>344.0</ele>
        <time>2012-01-25T19:22:00Z</time>
      </trkpt>
      <trkpt lat="32.777779" lon="34.986551">
        <ele>344.0</ele>
        <time>2012-01-25T19:22:04Z</time>
      </trkpt>
      <trkpt lat="32.777562" lon="34.986373">
        <ele>344.0</ele>
        <time>2012-01-25T19:22:09Z</time>
      </trkpt>
      <trkpt lat="32.777316" lon="34.986169">
        <ele>344.0</ele>
        <time>2012-01-25T19:22:13Z</time>
      </trkpt>
      <trkpt lat="32.777058" lon="34.985962">
        <ele>344.0</ele>
        <time>2012-01-25T19:22:17Z</time>
      </trkpt>
      <trkpt lat="32.776799" lon="34.985749">
        <ele>343.0</ele>
        <time>2012-01-25T19:22:21Z</time>
      </trkpt>
      <trkpt lat="32.776549" lon="34.98553">
        <ele>343.0</ele>
        <time>2012-01-25T19:22:25Z</time>
      </trkpt>
      <trkpt lat="32.776306" lon="34.985308">
        <ele>344.0</ele>
        <time>2012-01-25T19:22:29Z</time>
      </trkpt>
      <trkpt lat="32.776111" lon="34.985091">
        <ele>344.0</ele>
        <time>2012-01-25T19:22:33Z</time>
      </trkpt>
      <trkpt lat="32.775983" lon="34.984888">
        <ele>343.0</ele>
        <time>2012-01-25T19:22:36Z</time>
      </trkpt>
      <trkpt lat="32.775866" lon="34.984636">
        <ele>340.0</ele>
        <time>2012-01-25T19:22:40Z</time>
      </trkpt>
      <trkpt lat="32.775827" lon="34.984259">
        <ele>336.0</ele>
        <time>2012-01-25T19:22:45Z</time>
      </trkpt>
      <trkpt lat="32.775859" lon="34.983959">
        <ele>334.0</ele>
        <time>2012-01-25T19:22:49Z</time>
      </trkpt>
      <trkpt lat="32.775955" lon="34.983692">
        <ele>331.0</ele>
        <time>2012-01-25T19:22:53Z</time>
      </trkpt>
      <trkpt lat="32.776093" lon="34.983452">
        <ele>330.0</ele>
        <time>2012-01-25T19:22:57Z</time>
      </trkpt>
      <trkpt lat="32.776325" lon="34.983265">
        <ele>329.0</ele>
        <time>2012-01-25T19:23:01Z</time>
      </trkpt>
      <trkpt lat="32.776598" lon="34.983161">
        <ele>328.0</ele>
        <time>2012-01-25T19:23:05Z</time>
      </trkpt>
      <trkpt lat="32.776889" lon="34.9831">
        <ele>326.0</ele>
        <time>2012-01-25T19:23:09Z</time>
      </trkpt>
      <trkpt lat="32.777127" lon="34.983133">
        <ele>326.0</ele>
        <time>2012-01-25T19:23:13Z</time>
      </trkpt>
      <trkpt lat="32.777329" lon="34.983128">
        <ele>325.0</ele>
        <time>2012-01-25T19:23:17Z</time>
      </trkpt>
      <trkpt lat="32.777522" lon="34.983126">
        <ele>324.0</ele>
        <time>2012-01-25T19:23:21Z</time>
      </trkpt>
      <trkpt lat="32.777696" lon="34.983051">
        <ele>324.0</ele>
        <time>2012-01-25T19:23:25Z</time>
      </trkpt>
      <trkpt lat="32.777857" lon="34.982921">
        <ele>323.0</ele>
        <time>2012-01-25T19:23:29Z</time>
      </trkpt>
      <trkpt lat="32.777935" lon="34.982843">
        <ele>323.0</ele>
        <time>2012-01-25T19:23:31Z</time>
      </trkpt>
      <trkpt lat="32.778114" lon="34.982501">
        <ele>319.0</ele>
        <time>2012-01-25T19:23:37Z</time>
      </trkpt>
      <trkpt lat="32.778144" lon="34.982268">
        <ele>319.0</ele>
        <time>2012-01-25T19:23:41Z</time>
      </trkpt>
      <trkpt lat="32.778135" lon="34.982123">
        <ele>319.0</ele>
        <time>2012-01-25T19:23:43Z</time>
      </trkpt>
      <trkpt lat="32.778116" lon="34.981554">
        <ele>317.0</ele>
        <time>2012-01-25T19:23:49Z</time>
      </trkpt>
      <trkpt lat="32.778094" lon="34.98117">
        <ele>314.0</ele>
        <time>2012-01-25T19:23:53Z</time>
      </trkpt>
      <trkpt lat="32.778099" lon="34.980811">
        <ele>310.0</ele>
        <time>2012-01-25T19:23:57Z</time>
      </trkpt>
      <trkpt lat="32.778139" lon="34.980453">
        <ele>307.0</ele>
        <time>2012-01-25T19:24:01Z</time>
      </trkpt>
      <trkpt lat="32.778188" lon="34.980129">
        <ele>305.0</ele>
        <time>2012-01-25T19:24:05Z</time>
      </trkpt>
      <trkpt lat="32.77829" lon="34.979812">
        <ele>304.0</ele>
        <time>2012-01-25T19:24:09Z</time>
      </trkpt>
      <trkpt lat="32.778463" lon="34.979524">
        <ele>303.0</ele>
        <time>2012-01-25T19:24:13Z</time>
      </trkpt>
      <trkpt lat="32.778795" lon="34.979365">
        <ele>299.0</ele>
        <time>2012-01-25T19:24:17Z</time>
      </trkpt>
      <trkpt lat="32.779191" lon="34.979293">
        <ele>295.0</ele>
        <time>2012-01-25T19:24:21Z</time>
      </trkpt>
      <trkpt lat="32.779574" lon="34.979294">
        <ele>293.0</ele>
        <time>2012-01-25T19:24:25Z</time>
      </trkpt>
      <trkpt lat="32.779911" lon="34.979332">
        <ele>293.0</ele>
        <time>2012-01-25T19:24:29Z</time>
      </trkpt>
      <trkpt lat="32.780196" lon="34.979493">
        <ele>292.0</ele>
        <time>2012-01-25T19:24:33Z</time>
      </trkpt>
      <trkpt lat="32.780433" lon="34.979711">
        <ele>290.0</ele>
        <time>2012-01-25T19:24:37Z</time>
      </trkpt>
      <trkpt lat="32.780689" lon="34.979874">
        <ele>288.0</ele>
        <time>2012-01-25T19:24:41Z</time>
      </trkpt>
      <trkpt lat="32.780859" lon="34.979942">
        <ele>286.0</ele>
        <time>2012-01-25T19:24:44Z</time>
      </trkpt>
      <trkpt lat="32.78107" lon="34.98">
        <ele>285.0</ele>
        <time>2012-01-25T19:24:48Z</time>
      </trkpt>
      <trkpt lat="32.781301" lon="34.979934">
        <ele>285.0</ele>
        <time>2012-01-25T19:24:52Z</time>
      </trkpt>
      <trkpt lat="32.781578" lon="34.979697">
        <ele>284.0</ele>
        <time>2012-01-25T19:24:57Z</time>
      </trkpt>
      <trkpt lat="32.781754" lon="34.979368">
        <ele>277.0</ele>
        <time>2012-01-25T19:25:01Z</time>
      </trkpt>
      <trkpt lat="32.78185" lon="34.979038">
        <ele>271.0</ele>
        <time>2012-01-25T19:25:05Z</time>
      </trkpt>
      <trkpt lat="32.781915" lon="34.978814">
        <ele>268.0</ele>
        <time>2012-01-25T19:25:08Z</time>
      </trkpt>
      <trkpt lat="32.781989" lon="34.978443">
        <ele>265.0</ele>
        <time>2012-01-25T19:25:13Z</time>
      </trkpt>
      <trkpt lat="32.782002" lon="34.978124">
        <ele>263.0</ele>
        <time>2012-01-25T19:25:17Z</time>
      </trkpt>
      <trkpt lat="32.781969" lon="34.977762">
        <ele>260.0</ele>
        <time>2012-01-25T19:25:21Z</time>
      </trkpt>
      <trkpt lat="32.781908" lon="34.977369">
        <ele>256.0</ele>
        <time>2012-01-25T19:25:25Z</time>
      </trkpt>
      <trkpt lat="32.781873" lon="34.97707">
        <ele>252.0</ele>
        <time>2012-01-25T19:25:28Z</time>
      </trkpt>
      <trkpt lat="32.781825" lon="34.976588">
        <ele>245.0</ele>
        <time>2012-01-25T19:25:33Z</time>
      </trkpt>
      <trkpt lat="32.781788" lon="34.976214">
        <ele>238.0</ele>
        <time>2012-01-25T19:25:37Z</time>
      </trkpt>
      <trkpt lat="32.781788" lon="34.975841">
        <ele>231.0</ele>
        <time>2012-01-25T19:25:41Z</time>
      </trkpt>
      <trkpt lat="32.781815" lon="34.975566">
        <ele>227.0</ele>
        <time>2012-01-25T19:25:44Z</time>
      </trkpt>
      <trkpt lat="32.781875" lon="34.975208">
        <ele>221.0</ele>
        <time>2012-01-25T19:25:48Z</time>
      </trkpt>
      <trkpt lat="32.781939" lon="34.974903">
        <ele>213.0</ele>
        <time>2012-01-25T19:25:52Z</time>
      </trkpt>
      <trkpt lat="32.782062" lon="34.974569">
        <ele>206.0</ele>
        <time>2012-01-25T19:25:57Z</time>
      </trkpt>
      <trkpt lat="32.782169" lon="34.974349">
        <ele>203.0</ele>
        <time>2012-01-25T19:26:00Z</time>
      </trkpt>
      <trkpt lat="32.782382" lon="34.974016">
        <ele>200.0</ele>
        <time>2012-01-25T19:26:05Z</time>
      </trkpt>
      <trkpt lat="32.782628" lon="34.973746">
        <ele>198.0</ele>
        <time>2012-01-25T19:26:09Z</time>
      </trkpt>
      <trkpt lat="32.782926" lon="34.973518">
        <ele>194.0</ele>
        <time>2012-01-25T19:26:13Z</time>
      </trkpt>
      <trkpt lat="32.783257" lon="34.973313">
        <ele>191.0</ele>
        <time>2012-01-25T19:26:17Z</time>
      </trkpt>
      <trkpt lat="32.783603" lon="34.97312">
        <ele>189.0</ele>
        <time>2012-01-25T19:26:21Z</time>
      </trkpt>
      <trkpt lat="32.783964" lon="34.972968">
        <ele>187.0</ele>
        <time>2012-01-25T19:26:25Z</time>
      </trkpt>
      <trkpt lat="32.784246" lon="34.972905">
        <ele>185.0</ele>
        <time>2012-01-25T19:26:28Z</time>
      </trkpt>
      <trkpt lat="32.784625" lon="34.9729">
        <ele>182.0</ele>
        <time>2012-01-25T19:26:33Z</time>
      </trkpt>
      <trkpt lat="32.784878" lon="34.972906">
        <ele>180.0</ele>
        <time>2012-01-25T19:26:37Z</time>
      </trkpt>
      <trkpt lat="32.785072" lon="34.97292">
        <ele>179.0</ele>
        <time>2012-01-25T19:26:40Z</time>
      </trkpt>
      <trkpt lat="32.785307" lon="34.972955">
        <ele>178.0</ele>
        <time>2012-01-25T19:26:44Z</time>
      </trkpt>
      <trkpt lat="32.785543" lon="34.972985">
        <ele>177.0</ele>
        <time>2012-01-25T19:26:48Z</time>
      </trkpt>
      <trkpt lat="32.785779" lon="34.973014">
        <ele>177.0</ele>
        <time>2012-01-25T19:26:52Z</time>
      </trkpt>
      <trkpt lat="32.786092" lon="34.973048">
        <ele>176.0</ele>
        <time>2012-01-25T19:26:58Z</time>
      </trkpt>
      <trkpt lat="32.786417" lon="34.973031">
        <ele>174.0</ele>
        <time>2012-01-25T19:27:04Z</time>
      </trkpt>
      <trkpt lat="32.786601" lon="34.972998">
        <ele>172.0</ele>
        <time>2012-01-25T19:27:08Z</time>
      </trkpt>
      <trkpt lat="32.786686" lon="34.972958">
        <ele>172.0</ele>
        <time>2012-01-25T19:27:10Z</time>
      </trkpt>
      <trkpt lat="32.786934" lon="34.972768">
        <ele>170.0</ele>
        <time>2012-01-25T19:27:16Z</time>
      </trkpt>
      <trkpt lat="32.787091" lon="34.972616">
        <ele>169.0</ele>
        <time>2012-01-25T19:27:20Z</time>
      </trkpt>
      <trkpt lat="32.78728" lon="34.972347">
        <ele>168.0</ele>
        <time>2012-01-25T19:27:25Z</time>
      </trkpt>
      <trkpt lat="32.787383" lon="34.972035">
        <ele>167.0</ele>
        <time>2012-01-25T19:27:29Z</time>
      </trkpt>
      <trkpt lat="32.78743" lon="34.97174">
        <ele>165.0</ele>
        <time>2012-01-25T19:27:33Z</time>
      </trkpt>
      <trkpt lat="32.787419" lon="34.971434">
        <ele>163.0</ele>
        <time>2012-01-25T19:27:37Z</time>
      </trkpt>
      <trkpt lat="32.787395" lon="34.971141">
        <ele>161.0</ele>
        <time>2012-01-25T19:27:41Z</time>
      </trkpt>
      <trkpt lat="32.787361" lon="34.970918">
        <ele>160.0</ele>
        <time>2012-01-25T19:27:44Z</time>
      </trkpt>
      <trkpt lat="32.787336" lon="34.970652">
        <ele>159.0</ele>
        <time>2012-01-25T19:27:48Z</time>
      </trkpt>
      <trkpt lat="32.787338" lon="34.970443">
        <ele>157.0</ele>
        <time>2012-01-25T19:27:52Z</time>
      </trkpt>
      <trkpt lat="32.787339" lon="34.970364">
        <ele>157.0</ele>
        <time>2012-01-25T19:27:56Z</time>
      </trkpt>
      <trkpt lat="32.787342" lon="34.970287">
        <ele>156.0</ele>
        <time>2012-01-25T19:28:00Z</time>
      </trkpt>
      <trkpt lat="32.787361" lon="34.970198">
        <ele>156.0</ele>
        <time>2012-01-25T19:28:03Z</time>
      </trkpt>
      <trkpt lat="32.787419" lon="34.969998">
        <ele>153.0</ele>
        <time>2012-01-25T19:28:08Z</time>
      </trkpt>
      <trkpt lat="32.787511" lon="34.969774">
        <ele>152.0</ele>
        <time>2012-01-25T19:28:12Z</time>
      </trkpt>
      <trkpt lat="32.787621" lon="34.969587">
        <ele>152.0</ele>
        <time>2012-01-25T19:28:16Z</time>
      </trkpt>
      <trkpt lat="32.787723" lon="34.969434">
        <ele>153.0</ele>
        <time>2012-01-25T19:28:20Z</time>
      </trkpt>
      <trkpt lat="32.78775" lon="34.969361">
        <ele>152.0</ele>
        <time>2012-01-25T19:28:22Z</time>
      </trkpt>
      <trkpt lat="32.787789" lon="34.969285">
        <ele>152.0</ele>
        <time>2012-01-25T19:28:27Z</time>
      </trkpt>
      <trkpt lat="32.7879" lon="34.96916">
        <ele>151.0</ele>
        <time>2012-01-25T19:28:32Z</time>
      </trkpt>
      <trkpt lat="32.788004" lon="34.96905">
        <ele>151.0</ele>
        <time>2012-01-25T19:28:36Z</time>
      </trkpt>
      <trkpt lat="32.788066" lon="34.968982">
        <ele>150.0</ele>
        <time>2012-01-25T19:28:39Z</time>
      </trkpt>
      <trkpt lat="32.788175" lon="34.968861">
        <ele>150.0</ele>
        <time>2012-01-25T19:28:45Z</time>
      </trkpt>
      <trkpt lat="32.788198" lon="34.968783">
        <ele>149.0</ele>
        <time>2012-01-25T19:28:48Z</time>
      </trkpt>
      <trkpt lat="32.788248" lon="34.968731">
        <ele>149.0</ele>
        <time>2012-01-25T19:28:51Z</time>
      </trkpt>
      <trkpt lat="32.788375" lon="34.968597">
        <ele>148.0</ele>
        <time>2012-01-25T19:28:57Z</time>
      </trkpt>
      <trkpt lat="32.788375" lon="34.968597">
        <time>2012-01-25T19:29:09Z</time>
      </trkpt>
    </trkseg>
    <trkseg>
      <trkpt lat="32.788375" lon="34.968597">
        <time>2012-01-25T19:31:23Z</time>
      </trkpt>
      <trkpt lat="32.788375" lon="34.968597">
        <time>2012-01-25T19:31:35Z</time>
      </trkpt>
    </trkseg>
    <trkseg>
      <trkpt lat="32.788375" lon="34.968597">
        <time>2012-01-25T19:31:37Z</time>
      </trkpt>
      <trkpt lat="32.788375" lon="34.968597">
        <time>2012-01-25T19:31:49Z</time>
      </trkpt>
    </trkseg>
    <trkseg>
      <trkpt lat="32.788375" lon="34.968597">
        <time>2012-01-25T19:32:09Z</time>
      </trkpt>
      <trkpt lat="32.788674" lon="34.968474">
        <ele>140.0</ele>
        <time>2012-01-25T19:32:11Z</time>
      </trkpt>
      <trkpt lat="32.788732" lon="34.968398">
        <ele>139.0</ele>
        <time>2012-01-25T19:32:14Z</time>
      </trkpt>
      <trkpt lat="32.788838" lon="34.968294">
        <ele>139.0</ele>
        <time>2012-01-25T19:32:20Z</time>
      </trkpt>
      <trkpt lat="32.788896" lon="34.96824">
        <ele>139.0</ele>
        <time>2012-01-25T19:32:23Z</time>
      </trkpt>
      <trkpt lat="32.788951" lon="34.968183">
        <ele>138.0</ele>
        <time>2012-01-25T19:32:26Z</time>
      </trkpt>
      <trkpt lat="32.788993" lon="34.968122">
        <ele>138.0</ele>
        <time>2012-01-25T19:32:29Z</time>
      </trkpt>
      <trkpt lat="32.789049" lon="34.968063">
        <ele>138.0</ele>
        <time>2012-01-25T19:32:33Z</time>
      </trkpt>
      <trkpt lat="32.789175" lon="34.967976">
        <ele>137.0</ele>
        <time>2012-01-25T19:32:40Z</time>
      </trkpt>
      <trkpt lat="32.789223" lon="34.967899">
        <ele>136.0</ele>
        <time>2012-01-25T19:32:44Z</time>
      </trkpt>
      <trkpt lat="32.789246" lon="34.967814">
        <ele>135.0</ele>
        <time>2012-01-25T19:32:47Z</time>
      </trkpt>
      <trkpt lat="32.789282" lon="34.967733">
        <ele>134.0</ele>
        <time>2012-01-25T19:32:51Z</time>
      </trkpt>
      <trkpt lat="32.789414" lon="34.967666">
        <ele>132.0</ele>
        <time>2012-01-25T19:32:58Z</time>
      </trkpt>
      <trkpt lat="32.789534" lon="34.967604">
        <ele>132.0</ele>
        <time>2012-01-25T19:33:04Z</time>
      </trkpt>
      <trkpt lat="32.789593" lon="34.967566">
        <ele>131.0</ele>
        <time>2012-01-25T19:33:07Z</time>
      </trkpt>
      <trkpt lat="32.789652" lon="34.967527">
        <ele>131.0</ele>
        <time>2012-01-25T19:33:10Z</time>
      </trkpt>
      <trkpt lat="32.789776" lon="34.967454">
        <ele>131.0</ele>
        <time>2012-01-25T19:33:16Z</time>
      </trkpt>
      <trkpt lat="32.789893" lon="34.967352">
        <ele>130.0</ele>
        <time>2012-01-25T19:33:23Z</time>
      </trkpt>
      <trkpt lat="32.78995" lon="34.967286">
        <ele>130.0</ele>
        <time>2012-01-25T19:33:27Z</time>
      </trkpt>
      <trkpt lat="32.789994" lon="34.967229">
        <ele>130.0</ele>
        <time>2012-01-25T19:33:30Z</time>
      </trkpt>
      <trkpt lat="32.790033" lon="34.967162">
        <ele>130.0</ele>
        <time>2012-01-25T19:33:34Z</time>
      </trkpt>
      <trkpt lat="32.790075" lon="34.967008">
        <ele>129.0</ele>
        <time>2012-01-25T19:33:45Z</time>
      </trkpt>
      <trkpt lat="32.790099" lon="34.966938">
        <ele>128.0</ele>
        <time>2012-01-25T19:33:50Z</time>
      </trkpt>
      <trkpt lat="32.790132" lon="34.966865">
        <ele>127.0</ele>
        <time>2012-01-25T19:33:56Z</time>
      </trkpt>
      <trkpt lat="32.790131" lon="34.966784">
        <ele>127.0</ele>
        <time>2012-01-25T19:34:02Z</time>
      </trkpt>
      <trkpt lat="32.790105" lon="34.966714">
        <ele>126.0</ele>
        <time>2012-01-25T19:34:08Z</time>
      </trkpt>
      <trkpt lat="32.790105" lon="34.966714">
        <time>2012-01-25T19:34:20Z</time>
      </trkpt>
    </trkseg>
    <trkseg>
      <trkpt lat="32.790105" lon="34.966714">
        <time>2012-01-25T19:34:23Z</time>
      </trkpt>
      <trkpt lat="32.790161" lon="34.966919">
        <ele>121.0</ele>
        <time>2012-01-25T19:34:31Z</time>
      </trkpt>
      <trkpt lat="32.790227" lon="34.966924">
        <ele>121.0</ele>
        <time>2012-01-25T19:34:36Z</time>
      </trkpt>
      <trkpt lat="32.790218" lon="34.966847">
        <ele>121.0</ele>
        <time>2012-01-25T19:34:46Z</time>
      </trkpt>
      <trkpt lat="32.790211" lon="34.966773">
        <ele>121.0</ele>
        <time>2012-01-25T19:34:52Z</time>
      </trkpt>
      <trkpt lat="32.790152" lon="34.966731">
        <ele>121.0</ele>
        <time>2012-01-25T19:34:59Z</time>
      </trkpt>
      <trkpt lat="32.790096" lon="34.966694">
        <ele>121.0</ele>
        <time>2012-01-25T19:35:03Z</time>
      </trkpt>
      <trkpt lat="32.790096" lon="34.966694">
        <time>2012-01-25T19:35:15Z</time>
      </trkpt>
    </trkseg>
    <trkseg>
      <trkpt lat="32.790096" lon="34.966694">
        <time>2012-01-25T19:35:26Z</time>
      </trkpt>
      <trkpt lat="32.790096" lon="34.966694">
        <time>2012-01-25T19:35:38Z</time>
      </trkpt>
    </trkseg>
    <trkseg>
      <trkpt lat="32.790096" lon="34.966694">
        <time>2012-01-25T19:36:23Z</time>
      </trkpt>
      <trkpt lat="32.790049" lon="34.966962">
        <ele>108.0</ele>
        <time>2012-01-25T19:36:26Z</time>
      </trkpt>
      <trkpt lat="32.790028" lon="34.967054">
        <ele>107.0</ele>
        <time>2012-01-25T19:36:29Z</time>
      </trkpt>
      <trkpt lat="32.789949" lon="34.967216">
        <ele>107.0</ele>
        <time>2012-01-25T19:36:34Z</time>
      </trkpt>
      <trkpt lat="32.78987" lon="34.967364">
        <ele>107.0</ele>
        <time>2012-01-25T19:36:38Z</time>
      </trkpt>
      <trkpt lat="32.789787" lon="34.967493">
        <ele>107.0</ele>
        <time>2012-01-25T19:36:42Z</time>
      </trkpt>
      <trkpt lat="32.789694" lon="34.967615">
        <ele>106.0</ele>
        <time>2012-01-25T19:36:46Z</time>
      </trkpt>
      <trkpt lat="32.789596" lon="34.967733">
        <ele>105.0</ele>
        <time>2012-01-25T19:36:50Z</time>
      </trkpt>
      <trkpt lat="32.789493" lon="34.967836">
        <ele>104.0</ele>
        <time>2012-01-25T19:36:54Z</time>
      </trkpt>
      <trkpt lat="32.789381" lon="34.967927">
        <ele>103.0</ele>
        <time>2012-01-25T19:36:58Z</time>
      </trkpt>
      <trkpt lat="32.78933" lon="34.96799">
        <ele>102.0</ele>
        <time>2012-01-25T19:37:01Z</time>
      </trkpt>
      <trkpt lat="32.78928" lon="34.96806">
        <ele>101.0</ele>
        <time>2012-01-25T19:37:04Z</time>
      </trkpt>
      <trkpt lat="32.789136" lon="34.968155">
        <ele>99.0</ele>
        <time>2012-01-25T19:37:10Z</time>
      </trkpt>
      <trkpt lat="32.788971" lon="34.968357">
        <ele>95.0</ele>
        <time>2012-01-25T19:37:19Z</time>
      </trkpt>
      <trkpt lat="32.788911" lon="34.968421">
        <ele>95.0</ele>
        <time>2012-01-25T19:37:22Z</time>
      </trkpt>
      <trkpt lat="32.788846" lon="34.968483">
        <ele>94.0</ele>
        <time>2012-01-25T19:37:25Z</time>
      </trkpt>
      <trkpt lat="32.788779" lon="34.968546">
        <ele>93.0</ele>
        <time>2012-01-25T19:37:28Z</time>
      </trkpt>
      <trkpt lat="32.788645" lon="34.968669">
        <ele>91.0</ele>
        <time>2012-01-25T19:37:34Z</time>
      </trkpt>
      <trkpt lat="32.78858" lon="34.968737">
        <ele>91.0</ele>
        <time>2012-01-25T19:37:37Z</time>
      </trkpt>
      <trkpt lat="32.788452" lon="34.96886">
        <ele>89.0</ele>
        <time>2012-01-25T19:37:43Z</time>
      </trkpt>
      <trkpt lat="32.7884" lon="34.968929">
        <ele>89.0</ele>
        <time>2012-01-25T19:37:46Z</time>
      </trkpt>
      <trkpt lat="32.788357" lon="34.969012">
        <ele>88.0</ele>
        <time>2012-01-25T19:37:49Z</time>
      </trkpt>
      <trkpt lat="32.788262" lon="34.969164">
        <ele>87.0</ele>
        <time>2012-01-25T19:37:55Z</time>
      </trkpt>
      <trkpt lat="32.788207" lon="34.969239">
        <ele>86.0</ele>
        <time>2012-01-25T19:37:58Z</time>
      </trkpt>
      <trkpt lat="32.788144" lon="34.969312">
        <ele>86.0</ele>
        <time>2012-01-25T19:38:01Z</time>
      </trkpt>
      <trkpt lat="32.788082" lon="34.969387">
        <ele>85.0</ele>
        <time>2012-01-25T19:38:04Z</time>
      </trkpt>
      <trkpt lat="32.787956" lon="34.969525">
        <ele>84.0</ele>
        <time>2012-01-25T19:38:10Z</time>
      </trkpt>
      <trkpt lat="32.787896" lon="34.969582">
        <ele>83.0</ele>
        <time>2012-01-25T19:38:13Z</time>
      </trkpt>
      <trkpt lat="32.787832" lon="34.96961">
        <ele>83.0</ele>
        <time>2012-01-25T19:38:18Z</time>
      </trkpt>
      <trkpt lat="32.7878" lon="34.969786">
        <ele>82.0</ele>
        <time>2012-01-25T19:38:26Z</time>
      </trkpt>
      <trkpt lat="32.787779" lon="34.969995">
        <ele>81.0</ele>
        <time>2012-01-25T19:38:32Z</time>
      </trkpt>
      <trkpt lat="32.787717" lon="34.970193">
        <ele>81.0</ele>
        <time>2012-01-25T19:38:38Z</time>
      </trkpt>
      <trkpt lat="32.787681" lon="34.970294">
        <ele>80.0</ele>
        <time>2012-01-25T19:38:41Z</time>
      </trkpt>
      <trkpt lat="32.787655" lon="34.970372">
        <ele>80.0</ele>
        <time>2012-01-25T19:38:44Z</time>
      </trkpt>
      <trkpt lat="32.787609" lon="34.970444">
        <ele>80.0</ele>
        <time>2012-01-25T19:38:48Z</time>
      </trkpt>
      <trkpt lat="32.787609" lon="34.970444">
        <time>2012-01-25T19:38:59Z</time>
      </trkpt>
    </trkseg>
    <trkseg>
      <trkpt lat="32.787609" lon="34.970444">
        <time>2012-01-25T19:39:29Z</time>
      </trkpt>
      <trkpt lat="32.787583" lon="34.97062">
        <ele>77.0</ele>
        <time>2012-01-25T19:39:32Z</time>
      </trkpt>
      <trkpt lat="32.787561" lon="34.97072">
        <ele>77.0</ele>
        <time>2012-01-25T19:39:35Z</time>
      </trkpt>
      <trkpt lat="32.787548" lon="34.970823">
        <ele>77.0</ele>
        <time>2012-01-25T19:39:38Z</time>
      </trkpt>
      <trkpt lat="32.787547" lon="34.971089">
        <ele>76.0</ele>
        <time>2012-01-25T19:39:45Z</time>
      </trkpt>
      <trkpt lat="32.787535" lon="34.971241">
        <ele>75.0</ele>
        <time>2012-01-25T19:39:49Z</time>
      </trkpt>
      <trkpt lat="32.78753" lon="34.971315">
        <ele>75.0</ele>
        <time>2012-01-25T19:39:51Z</time>
      </trkpt>
      <trkpt lat="32.787527" lon="34.971425">
        <ele>75.0</ele>
        <time>2012-01-25T19:39:54Z</time>
      </trkpt>
      <trkpt lat="32.787532" lon="34.971639">
        <ele>75.0</ele>
        <time>2012-01-25T19:40:00Z</time>
      </trkpt>
      <trkpt lat="32.787531" lon="34.971744">
        <ele>75.0</ele>
        <time>2012-01-25T19:40:03Z</time>
      </trkpt>
      <trkpt lat="32.787514" lon="34.971949">
        <ele>75.0</ele>
        <time>2012-01-25T19:40:09Z</time>
      </trkpt>
      <trkpt lat="32.787494" lon="34.972051">
        <ele>75.0</ele>
        <time>2012-01-25T19:40:12Z</time>
      </trkpt>
      <trkpt lat="32.787471" lon="34.972148">
        <ele>75.0</ele>
        <time>2012-01-25T19:40:15Z</time>
      </trkpt>
      <trkpt lat="32.787447" lon="34.972242">
        <ele>76.0</ele>
        <time>2012-01-25T19:40:18Z</time>
      </trkpt>
      <trkpt lat="32.787377" lon="34.972411">
        <ele>76.0</ele>
        <time>2012-01-25T19:40:24Z</time>
      </trkpt>
      <trkpt lat="32.787301" lon="34.972563">
        <ele>76.0</ele>
        <time>2012-01-25T19:40:30Z</time>
      </trkpt>
      <trkpt lat="32.787261" lon="34.97264">
        <ele>77.0</ele>
        <time>2012-01-25T19:40:34Z</time>
      </trkpt>
      <trkpt lat="32.787113" lon="34.972822">
        <ele>78.0</ele>
        <time>2012-01-25T19:40:44Z</time>
      </trkpt>
      <trkpt lat="32.787047" lon="34.972878">
        <ele>78.0</ele>
        <time>2012-01-25T19:40:47Z</time>
      </trkpt>
      <trkpt lat="32.786976" lon="34.972928">
        <ele>79.0</ele>
        <time>2012-01-25T19:40:51Z</time>
      </trkpt>
      <trkpt lat="32.786901" lon="34.972966">
        <ele>79.0</ele>
        <time>2012-01-25T19:40:55Z</time>
      </trkpt>
      <trkpt lat="32.786717" lon="34.973033">
        <ele>81.0</ele>
        <time>2012-01-25T19:41:04Z</time>
      </trkpt>
      <trkpt lat="32.786654" lon="34.973046">
        <ele>81.0</ele>
        <time>2012-01-25T19:41:07Z</time>
      </trkpt>
      <trkpt lat="32.786525" lon="34.973067">
        <ele>82.0</ele>
        <time>2012-01-25T19:41:13Z</time>
      </trkpt>
      <trkpt lat="32.786458" lon="34.973069">
        <ele>82.0</ele>
        <time>2012-01-25T19:41:16Z</time>
      </trkpt>
      <trkpt lat="32.78639" lon="34.973069">
        <ele>83.0</ele>
        <time>2012-01-25T19:41:19Z</time>
      </trkpt>
      <trkpt lat="32.786182" lon="34.973053">
        <ele>84.0</ele>
        <time>2012-01-25T19:41:28Z</time>
      </trkpt>
      <trkpt lat="32.786114" lon="34.973042">
        <ele>84.0</ele>
        <time>2012-01-25T19:41:31Z</time>
      </trkpt>
      <trkpt lat="32.785973" lon="34.973011">
        <ele>85.0</ele>
        <time>2012-01-25T19:41:37Z</time>
      </trkpt>
      <trkpt lat="32.785905" lon="34.972983">
        <ele>86.0</ele>
        <time>2012-01-25T19:41:40Z</time>
      </trkpt>
      <trkpt lat="32.78584" lon="34.97297">
        <ele>86.0</ele>
        <time>2012-01-25T19:41:43Z</time>
      </trkpt>
      <trkpt lat="32.785777" lon="34.972961">
        <ele>86.0</ele>
        <time>2012-01-25T19:41:46Z</time>
      </trkpt>
      <trkpt lat="32.785696" lon="34.972951">
        <ele>87.0</ele>
        <time>2012-01-25T19:41:50Z</time>
      </trkpt>
      <trkpt lat="32.785617" lon="34.972946">
        <ele>87.0</ele>
        <time>2012-01-25T19:41:54Z</time>
      </trkpt>
      <trkpt lat="32.78547" lon="34.972974">
        <ele>87.0</ele>
        <time>2012-01-25T19:42:01Z</time>
      </trkpt>
      <trkpt lat="32.785407" lon="34.972992">
        <ele>88.0</ele>
        <time>2012-01-25T19:42:04Z</time>
      </trkpt>
      <trkpt lat="32.785325" lon="34.973003">
        <ele>88.0</ele>
        <time>2012-01-25T19:42:08Z</time>
      </trkpt>
      <trkpt lat="32.785262" lon="34.973013">
        <ele>88.0</ele>
        <time>2012-01-25T19:42:11Z</time>
      </trkpt>
      <trkpt lat="32.785134" lon="34.973037">
        <ele>89.0</ele>
        <time>2012-01-25T19:42:17Z</time>
      </trkpt>
      <trkpt lat="32.78507" lon="34.973047">
        <ele>89.0</ele>
        <time>2012-01-25T19:42:20Z</time>
      </trkpt>
      <trkpt lat="32.785006" lon="34.973055">
        <ele>89.0</ele>
        <time>2012-01-25T19:42:23Z</time>
      </trkpt>
      <trkpt lat="32.784943" lon="34.973061">
        <ele>90.0</ele>
        <time>2012-01-25T19:42:26Z</time>
      </trkpt>
      <trkpt lat="32.784796" lon="34.973064">
        <ele>90.0</ele>
        <time>2012-01-25T19:42:33Z</time>
      </trkpt>
      <trkpt lat="32.784714" lon="34.973069">
        <ele>90.0</ele>
        <time>2012-01-25T19:42:37Z</time>
      </trkpt>
      <trkpt lat="32.784629" lon="34.973077">
        <ele>91.0</ele>
        <time>2012-01-25T19:42:41Z</time>
      </trkpt>
      <trkpt lat="32.784561" lon="34.973084">
        <ele>91.0</ele>
        <time>2012-01-25T19:42:44Z</time>
      </trkpt>
      <trkpt lat="32.784493" lon="34.973085">
        <ele>91.0</ele>
        <time>2012-01-25T19:42:47Z</time>
      </trkpt>
      <trkpt lat="32.784346" lon="34.973048">
        <ele>92.0</ele>
        <time>2012-01-25T19:42:53Z</time>
      </trkpt>
      <trkpt lat="32.784258" lon="34.973038">
        <ele>93.0</ele>
        <time>2012-01-25T19:42:56Z</time>
      </trkpt>
      <trkpt lat="32.784165" lon="34.97304">
        <ele>93.0</ele>
        <time>2012-01-25T19:42:59Z</time>
      </trkpt>
      <trkpt lat="32.783989" lon="34.973105">
        <ele>95.0</ele>
        <time>2012-01-25T19:43:05Z</time>
      </trkpt>
      <trkpt lat="32.783826" lon="34.973185">
        <ele>97.0</ele>
        <time>2012-01-25T19:43:11Z</time>
      </trkpt>
      <trkpt lat="32.783662" lon="34.97327">
        <ele>99.0</ele>
        <time>2012-01-25T19:43:17Z</time>
      </trkpt>
      <trkpt lat="32.783528" lon="34.973354">
        <ele>101.0</ele>
        <time>2012-01-25T19:43:24Z</time>
      </trkpt>
      <trkpt lat="32.783303" lon="34.973482">
        <ele>103.0</ele>
        <time>2012-01-25T19:43:32Z</time>
      </trkpt>
      <trkpt lat="32.783229" lon="34.973522">
        <ele>104.0</ele>
        <time>2012-01-25T19:43:35Z</time>
      </trkpt>
      <trkpt lat="32.78309" lon="34.973622">
        <ele>106.0</ele>
        <time>2012-01-25T19:43:42Z</time>
      </trkpt>
      <trkpt lat="32.783021" lon="34.973671">
        <ele>106.0</ele>
        <time>2012-01-25T19:43:43Z</time>
      </trkpt>
      <trkpt lat="32.782811" lon="34.973845">
        <ele>109.0</ele>
        <time>2012-01-25T19:43:53Z</time>
      </trkpt>
      <trkpt lat="32.782746" lon="34.97391">
        <ele>109.0</ele>
        <time>2012-01-25T19:43:55Z</time>
      </trkpt>
      <trkpt lat="32.782568" lon="34.974115">
        <ele>112.0</ele>
        <time>2012-01-25T19:44:04Z</time>
      </trkpt>
      <trkpt lat="32.782516" lon="34.974188">
        <ele>113.0</ele>
        <time>2012-01-25T19:44:08Z</time>
      </trkpt>
      <trkpt lat="32.782411" lon="34.974333">
        <ele>115.0</ele>
        <time>2012-01-25T19:44:13Z</time>
      </trkpt>
      <trkpt lat="32.782312" lon="34.97449">
        <ele>117.0</ele>
        <time>2012-01-25T19:44:19Z</time>
      </trkpt>
      <trkpt lat="32.78226" lon="34.974568">
        <ele>118.0</ele>
        <time>2012-01-25T19:44:22Z</time>
      </trkpt>
      <trkpt lat="32.782159" lon="34.974734">
        <ele>120.0</ele>
        <time>2012-01-25T19:44:29Z</time>
      </trkpt>
      <trkpt lat="32.782029" lon="34.975005">
        <ele>122.0</ele>
        <time>2012-01-25T19:44:37Z</time>
      </trkpt>
      <trkpt lat="32.781994" lon="34.975151">
        <ele>124.0</ele>
        <time>2012-01-25T19:44:41Z</time>
      </trkpt>
      <trkpt lat="32.781941" lon="34.975442">
        <ele>126.0</ele>
        <time>2012-01-25T19:44:49Z</time>
      </trkpt>
      <trkpt lat="32.781918" lon="34.975591">
        <ele>127.0</ele>
        <time>2012-01-25T19:44:53Z</time>
      </trkpt>
      <trkpt lat="32.781906" lon="34.975702">
        <ele>127.0</ele>
        <time>2012-01-25T19:44:56Z</time>
      </trkpt>
      <trkpt lat="32.781899" lon="34.975784">
        <ele>128.0</ele>
        <time>2012-01-25T19:44:59Z</time>
      </trkpt>
      <trkpt lat="32.781892" lon="34.975964">
        <ele>129.0</ele>
        <time>2012-01-25T19:45:04Z</time>
      </trkpt>
      <trkpt lat="32.781895" lon="34.97604">
        <ele>130.0</ele>
        <time>2012-01-25T19:45:07Z</time>
      </trkpt>
      <trkpt lat="32.781922" lon="34.976268">
        <ele>131.0</ele>
        <time>2012-01-25T19:45:13Z</time>
      </trkpt>
      <trkpt lat="32.781945" lon="34.976422">
        <ele>132.0</ele>
        <time>2012-01-25T19:45:17Z</time>
      </trkpt>
      <trkpt lat="32.781974" lon="34.976581">
        <ele>133.0</ele>
        <time>2012-01-25T19:45:21Z</time>
      </trkpt>
      <trkpt lat="32.782005" lon="34.976742">
        <ele>134.0</ele>
        <time>2012-01-25T19:45:24Z</time>
      </trkpt>
      <trkpt lat="32.782021" lon="34.976819">
        <ele>135.0</ele>
        <time>2012-01-25T19:45:27Z</time>
      </trkpt>
      <trkpt lat="32.782052" lon="34.976969">
        <ele>135.0</ele>
        <time>2012-01-25T19:45:30Z</time>
      </trkpt>
      <trkpt lat="32.782092" lon="34.97726">
        <ele>137.0</ele>
        <time>2012-01-25T19:45:38Z</time>
      </trkpt>
      <trkpt lat="32.782109" lon="34.977371">
        <ele>138.0</ele>
        <time>2012-01-25T19:45:41Z</time>
      </trkpt>
      <trkpt lat="32.782119" lon="34.977445">
        <ele>138.0</ele>
        <time>2012-01-25T19:45:43Z</time>
      </trkpt>
      <trkpt lat="32.782163" lon="34.9777">
        <ele>139.0</ele>
        <time>2012-01-25T19:45:50Z</time>
      </trkpt>
      <trkpt lat="32.782179" lon="34.977806">
        <ele>140.0</ele>
        <time>2012-01-25T19:45:53Z</time>
      </trkpt>
      <trkpt lat="32.78219" lon="34.977907">
        <ele>141.0</ele>
        <time>2012-01-25T19:45:56Z</time>
      </trkpt>
      <trkpt lat="32.782197" lon="34.978">
        <ele>141.0</ele>
        <time>2012-01-25T19:45:59Z</time>
      </trkpt>
      <trkpt lat="32.782191" lon="34.978172">
        <ele>143.0</ele>
        <time>2012-01-25T19:46:05Z</time>
      </trkpt>
      <trkpt lat="32.782177" lon="34.978342">
        <ele>144.0</ele>
        <time>2012-01-25T19:46:11Z</time>
      </trkpt>
      <trkpt lat="32.782178" lon="34.978426">
        <ele>145.0</ele>
        <time>2012-01-25T19:46:14Z</time>
      </trkpt>
      <trkpt lat="32.782174" lon="34.978585">
        <ele>146.0</ele>
        <time>2012-01-25T19:46:20Z</time>
      </trkpt>
      <trkpt lat="32.782161" lon="34.97866">
        <ele>146.0</ele>
        <time>2012-01-25T19:46:23Z</time>
      </trkpt>
      <trkpt lat="32.782143" lon="34.978733">
        <ele>147.0</ele>
        <time>2012-01-25T19:46:26Z</time>
      </trkpt>
      <trkpt lat="32.782103" lon="34.978886">
        <ele>148.0</ele>
        <time>2012-01-25T19:46:32Z</time>
      </trkpt>
      <trkpt lat="32.78208" lon="34.978963">
        <ele>149.0</ele>
        <time>2012-01-25T19:46:35Z</time>
      </trkpt>
      <trkpt lat="32.782029" lon="34.979105">
        <ele>150.0</ele>
        <time>2012-01-25T19:46:41Z</time>
      </trkpt>
      <trkpt lat="32.781999" lon="34.979194">
        <ele>151.0</ele>
        <time>2012-01-25T19:46:45Z</time>
      </trkpt>
      <trkpt lat="32.781961" lon="34.979277">
        <ele>152.0</ele>
        <time>2012-01-25T19:46:49Z</time>
      </trkpt>
      <trkpt lat="32.781917" lon="34.979358">
        <ele>153.0</ele>
        <time>2012-01-25T19:46:53Z</time>
      </trkpt>
      <trkpt lat="32.781884" lon="34.979423">
        <ele>154.0</ele>
        <time>2012-01-25T19:46:56Z</time>
      </trkpt>
      <trkpt lat="32.781848" lon="34.979487">
        <ele>154.0</ele>
        <time>2012-01-25T19:46:59Z</time>
      </trkpt>
      <trkpt lat="32.7817" lon="34.979682">
        <ele>157.0</ele>
        <time>2012-01-25T19:47:10Z</time>
      </trkpt>
      <trkpt lat="32.781638" lon="34.979745">
        <ele>158.0</ele>
        <time>2012-01-25T19:47:14Z</time>
      </trkpt>
      <trkpt lat="32.781572" lon="34.979797">
        <ele>159.0</ele>
        <time>2012-01-25T19:47:18Z</time>
      </trkpt>
      <trkpt lat="32.781504" lon="34.979841">
        <ele>159.0</ele>
        <time>2012-01-25T19:47:21Z</time>
      </trkpt>
      <trkpt lat="32.781504" lon="34.979841">
        <time>2012-01-25T19:47:32Z</time>
      </trkpt>
    </trkseg>
    <trkseg>
      <trkpt lat="32.781504" lon="34.979841">
        <time>2012-01-25T19:47:33Z</time>
      </trkpt>
      <trkpt lat="32.781217" lon="34.97993">
        <ele>162.0</ele>
        <time>2012-01-25T19:47:37Z</time>
      </trkpt>
      <trkpt lat="32.781135" lon="34.979936">
        <ele>163.0</ele>
        <time>2012-01-25T19:47:41Z</time>
      </trkpt>
      <trkpt lat="32.781052" lon="34.979921">
        <ele>164.0</ele>
        <time>2012-01-25T19:47:45Z</time>
      </trkpt>
      <trkpt lat="32.780979" lon="34.979913">
        <ele>164.0</ele>
        <time>2012-01-25T19:47:49Z</time>
      </trkpt>
      <trkpt lat="32.780903" lon="34.979895">
        <ele>165.0</ele>
        <time>2012-01-25T19:47:53Z</time>
      </trkpt>
      <trkpt lat="32.780825" lon="34.979881">
        <ele>165.0</ele>
        <time>2012-01-25T19:47:57Z</time>
      </trkpt>
      <trkpt lat="32.780749" lon="34.979861">
        <ele>166.0</ele>
        <time>2012-01-25T19:48:01Z</time>
      </trkpt>
      <trkpt lat="32.78067" lon="34.979842">
        <ele>166.0</ele>
        <time>2012-01-25T19:48:05Z</time>
      </trkpt>
      <trkpt lat="32.78059" lon="34.979816">
        <ele>166.0</ele>
        <time>2012-01-25T19:48:09Z</time>
      </trkpt>
      <trkpt lat="32.780399" lon="34.979736">
        <ele>167.0</ele>
        <time>2012-01-25T19:48:18Z</time>
      </trkpt>
      <trkpt lat="32.780336" lon="34.979707">
        <ele>167.0</ele>
        <time>2012-01-25T19:48:21Z</time>
      </trkpt>
      <trkpt lat="32.780218" lon="34.979646">
        <ele>167.0</ele>
        <time>2012-01-25T19:48:27Z</time>
      </trkpt>
      <trkpt lat="32.780158" lon="34.979616">
        <ele>167.0</ele>
        <time>2012-01-25T19:48:30Z</time>
      </trkpt>
      <trkpt lat="32.780098" lon="34.979577">
        <ele>167.0</ele>
        <time>2012-01-25T19:48:33Z</time>
      </trkpt>
      <trkpt lat="32.779969" lon="34.979519">
        <ele>167.0</ele>
        <time>2012-01-25T19:48:39Z</time>
      </trkpt>
      <trkpt lat="32.779899" lon="34.979502">
        <ele>167.0</ele>
        <time>2012-01-25T19:48:42Z</time>
      </trkpt>
      <trkpt lat="32.779831" lon="34.979486">
        <ele>167.0</ele>
        <time>2012-01-25T19:48:45Z</time>
      </trkpt>
      <trkpt lat="32.77969" lon="34.979467">
        <ele>168.0</ele>
        <time>2012-01-25T19:48:51Z</time>
      </trkpt>
      <trkpt lat="32.779619" lon="34.97946">
        <ele>168.0</ele>
        <time>2012-01-25T19:48:54Z</time>
      </trkpt>
      <trkpt lat="32.779548" lon="34.979436">
        <ele>168.0</ele>
        <time>2012-01-25T19:48:57Z</time>
      </trkpt>
      <trkpt lat="32.779408" lon="34.979368">
        <ele>169.0</ele>
        <time>2012-01-25T19:49:03Z</time>
      </trkpt>
      <trkpt lat="32.779338" lon="34.979355">
        <ele>170.0</ele>
        <time>2012-01-25T19:49:06Z</time>
      </trkpt>
      <trkpt lat="32.779266" lon="34.979359">
        <ele>171.0</ele>
        <time>2012-01-25T19:49:09Z</time>
      </trkpt>
      <trkpt lat="32.779119" lon="34.979406">
        <ele>173.0</ele>
        <time>2012-01-25T19:49:15Z</time>
      </trkpt>
      <trkpt lat="32.778893" lon="34.979541">
        <ele>176.0</ele>
        <time>2012-01-25T19:49:24Z</time>
      </trkpt>
      <trkpt lat="32.778702" lon="34.979698">
        <ele>179.0</ele>
        <time>2012-01-25T19:49:33Z</time>
      </trkpt>
      <trkpt lat="32.77857" lon="34.979828">
        <ele>181.0</ele>
        <time>2012-01-25T19:49:39Z</time>
      </trkpt>
      <trkpt lat="32.778511" lon="34.979897">
        <ele>182.0</ele>
        <time>2012-01-25T19:49:42Z</time>
      </trkpt>
      <trkpt lat="32.778466" lon="34.979974">
        <ele>183.0</ele>
        <time>2012-01-25T19:49:45Z</time>
      </trkpt>
      <trkpt lat="32.778386" lon="34.980136">
        <ele>185.0</ele>
        <time>2012-01-25T19:49:51Z</time>
      </trkpt>
      <trkpt lat="32.778354" lon="34.980219">
        <ele>186.0</ele>
        <time>2012-01-25T19:49:54Z</time>
      </trkpt>
      <trkpt lat="32.778335" lon="34.980306">
        <ele>187.0</ele>
        <time>2012-01-25T19:49:57Z</time>
      </trkpt>
      <trkpt lat="32.778308" lon="34.98048">
        <ele>189.0</ele>
        <time>2012-01-25T19:50:03Z</time>
      </trkpt>
      <trkpt lat="32.778242" lon="34.980824">
        <ele>193.0</ele>
        <time>2012-01-25T19:50:15Z</time>
      </trkpt>
      <trkpt lat="32.778202" lon="34.981082">
        <ele>195.0</ele>
        <time>2012-01-25T19:50:23Z</time>
      </trkpt>
      <trkpt lat="32.778204" lon="34.981248">
        <ele>196.0</ele>
        <time>2012-01-25T19:50:30Z</time>
      </trkpt>
      <trkpt lat="32.778217" lon="34.981331">
        <ele>197.0</ele>
        <time>2012-01-25T19:50:32Z</time>
      </trkpt>
      <trkpt lat="32.77823" lon="34.981503">
        <ele>198.0</ele>
        <time>2012-01-25T19:50:38Z</time>
      </trkpt>
      <trkpt lat="32.778237" lon="34.981593">
        <ele>199.0</ele>
        <time>2012-01-25T19:50:42Z</time>
      </trkpt>
      <trkpt lat="32.77824" lon="34.981679">
        <ele>200.0</ele>
        <time>2012-01-25T19:50:44Z</time>
      </trkpt>
      <trkpt lat="32.778237" lon="34.981929">
        <ele>201.0</ele>
        <time>2012-01-25T19:50:53Z</time>
      </trkpt>
      <trkpt lat="32.77823" lon="34.982009">
        <ele>202.0</ele>
        <time>2012-01-25T19:50:56Z</time>
      </trkpt>
      <trkpt lat="32.778207" lon="34.982247">
        <ele>204.0</ele>
        <time>2012-01-25T19:51:06Z</time>
      </trkpt>
      <trkpt lat="32.778197" lon="34.982328">
        <ele>205.0</ele>
        <time>2012-01-25T19:51:09Z</time>
      </trkpt>
      <trkpt lat="32.778165" lon="34.982484">
        <ele>206.0</ele>
        <time>2012-01-25T19:51:14Z</time>
      </trkpt>
      <trkpt lat="32.778046" lon="34.982776">
        <ele>209.0</ele>
        <time>2012-01-25T19:51:26Z</time>
      </trkpt>
      <trkpt lat="32.778014" lon="34.982848">
        <ele>209.0</ele>
        <time>2012-01-25T19:51:29Z</time>
      </trkpt>
      <trkpt lat="32.777854" lon="34.983011">
        <ele>210.0</ele>
        <time>2012-01-25T19:51:40Z</time>
      </trkpt>
      <trkpt lat="32.777722" lon="34.983069">
        <ele>211.0</ele>
        <time>2012-01-25T19:51:46Z</time>
      </trkpt>
      <trkpt lat="32.777649" lon="34.983091">
        <ele>211.0</ele>
        <time>2012-01-25T19:51:49Z</time>
      </trkpt>
      <trkpt lat="32.777569" lon="34.983104">
        <ele>211.0</ele>
        <time>2012-01-25T19:51:52Z</time>
      </trkpt>
      <trkpt lat="32.777411" lon="34.983119">
        <ele>212.0</ele>
        <time>2012-01-25T19:51:58Z</time>
      </trkpt>
      <trkpt lat="32.777115" lon="34.983153">
        <ele>213.0</ele>
        <time>2012-01-25T19:52:11Z</time>
      </trkpt>
      <trkpt lat="32.777045" lon="34.983143">
        <ele>213.0</ele>
        <time>2012-01-25T19:52:13Z</time>
      </trkpt>
      <trkpt lat="32.776975" lon="34.983138">
        <ele>213.0</ele>
        <time>2012-01-25T19:52:16Z</time>
      </trkpt>
      <trkpt lat="32.77684" lon="34.983138">
        <ele>214.0</ele>
        <time>2012-01-25T19:52:23Z</time>
      </trkpt>
      <trkpt lat="32.776772" lon="34.98314">
        <ele>214.0</ele>
        <time>2012-01-25T19:52:25Z</time>
      </trkpt>
      <trkpt lat="32.776705" lon="34.983149">
        <ele>214.0</ele>
        <time>2012-01-25T19:52:28Z</time>
      </trkpt>
      <trkpt lat="32.776573" lon="34.983193">
        <ele>215.0</ele>
        <time>2012-01-25T19:52:34Z</time>
      </trkpt>
      <trkpt lat="32.776509" lon="34.983228">
        <ele>215.0</ele>
        <time>2012-01-25T19:52:37Z</time>
      </trkpt>
      <trkpt lat="32.776312" lon="34.983392">
        <ele>217.0</ele>
        <time>2012-01-25T19:52:45Z</time>
      </trkpt>
      <trkpt lat="32.776189" lon="34.983506">
        <ele>218.0</ele>
        <time>2012-01-25T19:52:50Z</time>
      </trkpt>
      <trkpt lat="32.776141" lon="34.983556">
        <ele>219.0</ele>
        <time>2012-01-25T19:52:52Z</time>
      </trkpt>
      <trkpt lat="32.776051" lon="34.983671">
        <ele>221.0</ele>
        <time>2012-01-25T19:52:57Z</time>
      </trkpt>
      <trkpt lat="32.775982" lon="34.983805">
        <ele>222.0</ele>
        <time>2012-01-25T19:53:01Z</time>
      </trkpt>
      <trkpt lat="32.775932" lon="34.983951">
        <ele>224.0</ele>
        <time>2012-01-25T19:53:05Z</time>
      </trkpt>
      <trkpt lat="32.775909" lon="34.98411">
        <ele>225.0</ele>
        <time>2012-01-25T19:53:09Z</time>
      </trkpt>
      <trkpt lat="32.775902" lon="34.984267">
        <ele>227.0</ele>
        <time>2012-01-25T19:53:13Z</time>
      </trkpt>
      <trkpt lat="32.775929" lon="34.984425">
        <ele>228.0</ele>
        <time>2012-01-25T19:53:17Z</time>
      </trkpt>
      <trkpt lat="32.775982" lon="34.984577">
        <ele>230.0</ele>
        <time>2012-01-25T19:53:21Z</time>
      </trkpt>
      <trkpt lat="32.776044" lon="34.984719">
        <ele>231.0</ele>
        <time>2012-01-25T19:53:25Z</time>
      </trkpt>
      <trkpt lat="32.77611" lon="34.984854">
        <ele>232.0</ele>
        <time>2012-01-25T19:53:29Z</time>
      </trkpt>
      <trkpt lat="32.776172" lon="34.984986">
        <ele>233.0</ele>
        <time>2012-01-25T19:53:33Z</time>
      </trkpt>
      <trkpt lat="32.776218" lon="34.985078">
        <ele>234.0</ele>
        <time>2012-01-25T19:53:36Z</time>
      </trkpt>
      <trkpt lat="32.776312" lon="34.98524">
        <ele>236.0</ele>
        <time>2012-01-25T19:53:42Z</time>
      </trkpt>
      <trkpt lat="32.776538" lon="34.985513">
        <ele>239.0</ele>
        <time>2012-01-25T19:53:54Z</time>
      </trkpt>
      <trkpt lat="32.776787" lon="34.985765">
        <ele>240.0</ele>
        <time>2012-01-25T19:54:06Z</time>
      </trkpt>
      <trkpt lat="32.776855" lon="34.985828">
        <ele>241.0</ele>
        <time>2012-01-25T19:54:09Z</time>
      </trkpt>
      <trkpt lat="32.77692" lon="34.985894">
        <ele>241.0</ele>
        <time>2012-01-25T19:54:12Z</time>
      </trkpt>
      <trkpt lat="32.777048" lon="34.98603">
        <ele>242.0</ele>
        <time>2012-01-25T19:54:18Z</time>
      </trkpt>
      <trkpt lat="32.777168" lon="34.986159">
        <ele>242.0</ele>
        <time>2012-01-25T19:54:24Z</time>
      </trkpt>
      <trkpt lat="32.777285" lon="34.986283">
        <ele>243.0</ele>
        <time>2012-01-25T19:54:30Z</time>
      </trkpt>
      <trkpt lat="32.77751" lon="34.986516">
        <ele>244.0</ele>
        <time>2012-01-25T19:54:42Z</time>
      </trkpt>
      <trkpt lat="32.777627" lon="34.98663">
        <ele>244.0</ele>
        <time>2012-01-25T19:54:48Z</time>
      </trkpt>
      <trkpt lat="32.777748" lon="34.986747">
        <ele>245.0</ele>
        <time>2012-01-25T19:54:54Z</time>
      </trkpt>
      <trkpt lat="32.777808" lon="34.986805">
        <ele>245.0</ele>
        <time>2012-01-25T19:54:57Z</time>
      </trkpt>
      <trkpt lat="32.777993" lon="34.986973">
        <ele>245.0</ele>
        <time>2012-01-25T19:55:06Z</time>
      </trkpt>
      <trkpt lat="32.777993" lon="34.986973">
        <time>2012-01-25T19:55:18Z</time>
      </trkpt>
    </trkseg>
    <trkseg>
      <trkpt lat="32.777993" lon="34.986973">
        <time>2012-01-25T19:55:26Z</time>
      </trkpt>
      <trkpt lat="32.778264" lon="34.987219">
        <ele>248.0</ele>
        <time>2012-01-25T19:55:33Z</time>
      </trkpt>
      <trkpt lat="32.778264" lon="34.987219">
        <time>2012-01-25T19:55:45Z</time>
      </trkpt>
    </trkseg>
    <trkseg>
      <trkpt lat="32.778264" lon="34.987219">
        <time>2012-01-25T19:55:50Z</time>
      </trkpt>
      <trkpt lat="32.778265" lon="34.987043">
        <ele>251.0</ele>
        <time>2012-01-25T19:55:55Z</time>
      </trkpt>
      <trkpt lat="32.778265" lon="34.987043">
        <time>2012-01-25T19:56:07Z</time>
      </trkpt>
    </trkseg>
    <trkseg>
      <trkpt lat="32.778265" lon="34.987043">
        <time>2012-01-25T19:57:20Z</time>
      </trkpt>
      <trkpt lat="32.778497" lon="34.98714">
        <ele>262.0</ele>
        <time>2012-01-25T19:57:23Z</time>
      </trkpt>
      <trkpt lat="32.778545" lon="34.98719">
        <ele>262.0</ele>
        <time>2012-01-25T19:57:26Z</time>
      </trkpt>
      <trkpt lat="32.778747" lon="34.987424">
        <ele>264.0</ele>
        <time>2012-01-25T19:57:35Z</time>
      </trkpt>
      <trkpt lat="32.778851" lon="34.987531">
        <ele>264.0</ele>
        <time>2012-01-25T19:57:39Z</time>
      </trkpt>
      <trkpt lat="32.778952" lon="34.987663">
        <ele>265.0</ele>
        <time>2012-01-25T19:57:43Z</time>
      </trkpt>
      <trkpt lat="32.779057" lon="34.987805">
        <ele>265.0</ele>
        <time>2012-01-25T19:57:47Z</time>
      </trkpt>
      <trkpt lat="32.779107" lon="34.987876">
        <ele>265.0</ele>
        <time>2012-01-25T19:57:49Z</time>
      </trkpt>
      <trkpt lat="32.779249" lon="34.98811">
        <ele>266.0</ele>
        <time>2012-01-25T19:57:55Z</time>
      </trkpt>
      <trkpt lat="32.779337" lon="34.988271">
        <ele>266.0</ele>
        <time>2012-01-25T19:57:59Z</time>
      </trkpt>
      <trkpt lat="32.77954" lon="34.988589">
        <ele>271.0</ele>
        <time>2012-01-25T19:58:07Z</time>
      </trkpt>
      <trkpt lat="32.779633" lon="34.988758">
        <ele>272.0</ele>
        <time>2012-01-25T19:58:11Z</time>
      </trkpt>
      <trkpt lat="32.779726" lon="34.988923">
        <ele>273.0</ele>
        <time>2012-01-25T19:58:15Z</time>
      </trkpt>
      <trkpt lat="32.779836" lon="34.989068">
        <ele>273.0</ele>
        <time>2012-01-25T19:58:19Z</time>
      </trkpt>
      <trkpt lat="32.779896" lon="34.989133">
        <ele>273.0</ele>
        <time>2012-01-25T19:58:21Z</time>
      </trkpt>
      <trkpt lat="32.780104" lon="34.989246">
        <ele>273.0</ele>
        <time>2012-01-25T19:58:27Z</time>
      </trkpt>
      <trkpt lat="32.780233" lon="34.989283">
        <ele>273.0</ele>
        <time>2012-01-25T19:58:31Z</time>
      </trkpt>
      <trkpt lat="32.780297" lon="34.989249">
        <ele>273.0</ele>
        <time>2012-01-25T19:58:33Z</time>
      </trkpt>
      <trkpt lat="32.780485" lon="34.988999">
        <ele>273.0</ele>
        <time>2012-01-25T19:58:39Z</time>
      </trkpt>
      <trkpt lat="32.780509" lon="34.988928">
        <ele>273.0</ele>
        <time>2012-01-25T19:58:40Z</time>
      </trkpt>
      <trkpt lat="32.780628" lon="34.988577">
        <ele>274.0</ele>
        <time>2012-01-25T19:58:46Z</time>
      </trkpt>
      <trkpt lat="32.780709" lon="34.988389">
        <ele>274.0</ele>
        <time>2012-01-25T19:58:50Z</time>
      </trkpt>
      <trkpt lat="32.780763" lon="34.98821">
        <ele>274.0</ele>
        <time>2012-01-25T19:58:54Z</time>
      </trkpt>
      <trkpt lat="32.780793" lon="34.988129">
        <ele>274.0</ele>
        <time>2012-01-25T19:58:56Z</time>
      </trkpt>
      <trkpt lat="32.780854" lon="34.987983">
        <ele>274.0</ele>
        <time>2012-01-25T19:59:01Z</time>
      </trkpt>
      <trkpt lat="32.781062" lon="34.987803">
        <ele>274.0</ele>
        <time>2012-01-25T19:59:11Z</time>
      </trkpt>
      <trkpt lat="32.781296" lon="34.98779">
        <ele>274.0</ele>
        <time>2012-01-25T19:59:19Z</time>
      </trkpt>
      <trkpt lat="32.781359" lon="34.987825">
        <ele>274.0</ele>
        <time>2012-01-25T19:59:21Z</time>
      </trkpt>
      <trkpt lat="32.781488" lon="34.987934">
        <ele>275.0</ele>
        <time>2012-01-25T19:59:26Z</time>
      </trkpt>
      <trkpt lat="32.78164" lon="34.988004">
        <ele>278.0</ele>
        <time>2012-01-25T19:59:30Z</time>
      </trkpt>
      <trkpt lat="32.781793" lon="34.988047">
        <ele>281.0</ele>
        <time>2012-01-25T19:59:34Z</time>
      </trkpt>
      <trkpt lat="32.781945" lon="34.988072">
        <ele>282.0</ele>
        <time>2012-01-25T19:59:38Z</time>
      </trkpt>
      <trkpt lat="32.7821" lon="34.988031">
        <ele>282.0</ele>
        <time>2012-01-25T19:59:42Z</time>
      </trkpt>
      <trkpt lat="32.782178" lon="34.988005">
        <ele>281.0</ele>
        <time>2012-01-25T19:59:44Z</time>
      </trkpt>
      <trkpt lat="32.782414" lon="34.987898">
        <ele>280.0</ele>
        <time>2012-01-25T19:59:50Z</time>
      </trkpt>
      <trkpt lat="32.782552" lon="34.987789">
        <ele>279.0</ele>
        <time>2012-01-25T19:59:54Z</time>
      </trkpt>
      <trkpt lat="32.782674" lon="34.987655">
        <ele>279.0</ele>
        <time>2012-01-25T19:59:58Z</time>
      </trkpt>
      <trkpt lat="32.782793" lon="34.987523">
        <ele>279.0</ele>
        <time>2012-01-25T20:00:02Z</time>
      </trkpt>
      <trkpt lat="32.782856" lon="34.987467">
        <ele>279.0</ele>
        <time>2012-01-25T20:00:04Z</time>
      </trkpt>
      <trkpt lat="32.783031" lon="34.987319">
        <ele>279.0</ele>
        <time>2012-01-25T20:00:10Z</time>
      </trkpt>
      <trkpt lat="32.783152" lon="34.987238">
        <ele>279.0</ele>
        <time>2012-01-25T20:00:14Z</time>
      </trkpt>
      <trkpt lat="32.78324" lon="34.987209">
        <ele>279.0</ele>
        <time>2012-01-25T20:00:17Z</time>
      </trkpt>
      <trkpt lat="32.78324" lon="34.987209">
        <time>2012-01-25T20:00:29Z</time>
      </trkpt>
    </trkseg>
    <trkseg>
      <trkpt lat="32.78324" lon="34.987209">
        <time>2012-01-25T20:00:45Z</time>
      </trkpt>
      <trkpt lat="32.78324" lon="34.987209">
        <time>2012-01-25T20:00:57Z</time>
      </trkpt>
    </trkseg>
    <trkseg>
      <trkpt lat="32.78324" lon="34.987209">
        <time>2012-01-25T20:01:33Z</time>
      </trkpt>
      <trkpt lat="32.78324" lon="34.987209">
        <time>2012-01-25T20:01:45Z</time>
      </trkpt>
    </trkseg>
    <trkseg>
      <trkpt lat="32.78324" lon="34.987209">
        <time>2012-01-25T20:01:54Z</time>
      </trkpt>
      <trkpt lat="32.783598" lon="34.987502">
        <ele>286.0</ele>
        <time>2012-01-25T20:02:00Z</time>
      </trkpt>
      <trkpt lat="32.783586" lon="34.987601">
        <ele>287.0</ele>
        <time>2012-01-25T20:02:05Z</time>
      </trkpt>
      <trkpt lat="32.783533" lon="34.987687">
        <ele>287.0</ele>
        <time>2012-01-25T20:02:10Z</time>
      </trkpt>
      <trkpt lat="32.783462" lon="34.987754">
        <ele>288.0</ele>
        <time>2012-01-25T20:02:13Z</time>
      </trkpt>
      <trkpt lat="32.783395" lon="34.987826">
        <ele>288.0</ele>
        <time>2012-01-25T20:02:16Z</time>
      </trkpt>
      <trkpt lat="32.783303" lon="34.987982">
        <ele>288.0</ele>
        <time>2012-01-25T20:02:25Z</time>
      </trkpt>
      <trkpt lat="32.783302" lon="34.988096">
        <ele>289.0</ele>
        <time>2012-01-25T20:02:30Z</time>
      </trkpt>
      <trkpt lat="32.78332" lon="34.988219">
        <ele>289.0</ele>
        <time>2012-01-25T20:02:35Z</time>
      </trkpt>
      <trkpt lat="32.783328" lon="34.988318">
        <ele>289.0</ele>
        <time>2012-01-25T20:02:40Z</time>
      </trkpt>
      <trkpt lat="32.783328" lon="34.988318">
        <time>2012-01-25T20:02:51Z</time>
      </trkpt>
    </trkseg>
    <trkseg>
      <trkpt lat="32.783328" lon="34.988318">
        <time>2012-01-25T20:02:52Z</time>
      </trkpt>
      <trkpt lat="32.783408" lon="34.988752">
        <ele>290.0</ele>
        <time>2012-01-25T20:02:56Z</time>
      </trkpt>
      <trkpt lat="32.783435" lon="34.988836">
        <ele>290.0</ele>
        <time>2012-01-25T20:02:59Z</time>
      </trkpt>
      <trkpt lat="32.783435" lon="34.988836">
        <time>2012-01-25T20:03:10Z</time>
      </trkpt>
    </trkseg>
    <trkseg>
      <trkpt lat="32.783435" lon="34.988836">
        <time>2012-01-25T20:03:10Z</time>
      </trkpt>
      <trkpt lat="32.783615" lon="34.989122">
        <ele>291.0</ele>
        <time>2012-01-25T20:03:13Z</time>
      </trkpt>
      <trkpt lat="32.783669" lon="34.989182">
        <ele>291.0</ele>
        <time>2012-01-25T20:03:16Z</time>
      </trkpt>
      <trkpt lat="32.783809" lon="34.989242">
        <ele>291.0</ele>
        <time>2012-01-25T20:03:22Z</time>
      </trkpt>
      <trkpt lat="32.783882" lon="34.989268">
        <ele>291.0</ele>
        <time>2012-01-25T20:03:25Z</time>
      </trkpt>
      <trkpt lat="32.78402" lon="34.989326">
        <ele>292.0</ele>
        <time>2012-01-25T20:03:31Z</time>
      </trkpt>
      <trkpt lat="32.784087" lon="34.989352">
        <ele>292.0</ele>
        <time>2012-01-25T20:03:34Z</time>
      </trkpt>
      <trkpt lat="32.784253" lon="34.989526">
        <ele>292.0</ele>
        <time>2012-01-25T20:03:43Z</time>
      </trkpt>
      <trkpt lat="32.784287" lon="34.989623">
        <ele>293.0</ele>
        <time>2012-01-25T20:03:46Z</time>
      </trkpt>
      <trkpt lat="32.784312" lon="34.989717">
        <ele>293.0</ele>
        <time>2012-01-25T20:03:49Z</time>
      </trkpt>
      <trkpt lat="32.784349" lon="34.9899">
        <ele>293.0</ele>
        <time>2012-01-25T20:03:55Z</time>
      </trkpt>
      <trkpt lat="32.784359" lon="34.989981">
        <ele>294.0</ele>
        <time>2012-01-25T20:03:58Z</time>
      </trkpt>
      <trkpt lat="32.784359" lon="34.990075">
        <ele>294.0</ele>
        <time>2012-01-25T20:04:02Z</time>
      </trkpt>
      <trkpt lat="32.784368" lon="34.990165">
        <ele>295.0</ele>
        <time>2012-01-25T20:04:06Z</time>
      </trkpt>
      <trkpt lat="32.784369" lon="34.990259">
        <ele>295.0</ele>
        <time>2012-01-25T20:04:10Z</time>
      </trkpt>
      <trkpt lat="32.78437" lon="34.990337">
        <ele>295.0</ele>
        <time>2012-01-25T20:04:13Z</time>
      </trkpt>
      <trkpt lat="32.784384" lon="34.990506">
        <ele>296.0</ele>
        <time>2012-01-25T20:04:19Z</time>
      </trkpt>
      <trkpt lat="32.784391" lon="34.990588">
        <ele>297.0</ele>
        <time>2012-01-25T20:04:22Z</time>
      </trkpt>
      <trkpt lat="32.784398" lon="34.990669">
        <ele>297.0</ele>
        <time>2012-01-25T20:04:25Z</time>
      </trkpt>
      <trkpt lat="32.784406" lon="34.990823">
        <ele>298.0</ele>
        <time>2012-01-25T20:04:31Z</time>
      </trkpt>
      <trkpt lat="32.784404" lon="34.990902">
        <ele>298.0</ele>
        <time>2012-01-25T20:04:34Z</time>
      </trkpt>
      <trkpt lat="32.784399" lon="34.990982">
        <ele>299.0</ele>
        <time>2012-01-25T20:04:37Z</time>
      </trkpt>
      <trkpt lat="32.784381" lon="34.991146">
        <ele>299.0</ele>
        <time>2012-01-25T20:04:43Z</time>
      </trkpt>
      <trkpt lat="32.784369" lon="34.991236">
        <ele>300.0</ele>
        <time>2012-01-25T20:04:46Z</time>
      </trkpt>
      <trkpt lat="32.784352" lon="34.991332">
        <ele>300.0</ele>
        <time>2012-01-25T20:04:49Z</time>
      </trkpt>
      <trkpt lat="32.78431" lon="34.991514">
        <ele>301.0</ele>
        <time>2012-01-25T20:04:55Z</time>
      </trkpt>
      <trkpt lat="32.78429" lon="34.991599">
        <ele>301.0</ele>
        <time>2012-01-25T20:04:58Z</time>
      </trkpt>
      <trkpt lat="32.784274" lon="34.991681">
        <ele>302.0</ele>
        <time>2012-01-25T20:05:01Z</time>
      </trkpt>
      <trkpt lat="32.784244" lon="34.99184">
        <ele>302.0</ele>
        <time>2012-01-25T20:05:07Z</time>
      </trkpt>
      <trkpt lat="32.784225" lon="34.991924">
        <ele>302.0</ele>
        <time>2012-01-25T20:05:10Z</time>
      </trkpt>
      <trkpt lat="32.784202" lon="34.992022">
        <ele>303.0</ele>
        <time>2012-01-25T20:05:13Z</time>
      </trkpt>
      <trkpt lat="32.784156" lon="34.99221">
        <ele>303.0</ele>
        <time>2012-01-25T20:05:19Z</time>
      </trkpt>
      <trkpt lat="32.784129" lon="34.992301">
        <ele>303.0</ele>
        <time>2012-01-25T20:05:22Z</time>
      </trkpt>
      <trkpt lat="32.784099" lon="34.992396">
        <ele>304.0</ele>
        <time>2012-01-25T20:05:25Z</time>
      </trkpt>
      <trkpt lat="32.784006" lon="34.992574">
        <ele>304.0</ele>
        <time>2012-01-25T20:05:31Z</time>
      </trkpt>
      <trkpt lat="32.783947" lon="34.992652">
        <ele>305.0</ele>
        <time>2012-01-25T20:05:34Z</time>
      </trkpt>
      <trkpt lat="32.783769" lon="34.99284">
        <ele>306.0</ele>
        <time>2012-01-25T20:05:43Z</time>
      </trkpt>
      <trkpt lat="32.783635" lon="34.992965">
        <ele>306.0</ele>
        <time>2012-01-25T20:05:50Z</time>
      </trkpt>
      <trkpt lat="32.783577" lon="34.993032">
        <ele>306.0</ele>
        <time>2012-01-25T20:05:53Z</time>
      </trkpt>
      <trkpt lat="32.783464" lon="34.993172">
        <ele>307.0</ele>
        <time>2012-01-25T20:05:59Z</time>
      </trkpt>
      <trkpt lat="32.783406" lon="34.993243">
        <ele>307.0</ele>
        <time>2012-01-25T20:06:01Z</time>
      </trkpt>
      <trkpt lat="32.783347" lon="34.993319">
        <ele>307.0</ele>
        <time>2012-01-25T20:06:04Z</time>
      </trkpt>
      <trkpt lat="32.783249" lon="34.99346">
        <ele>307.0</ele>
        <time>2012-01-25T20:06:10Z</time>
      </trkpt>
      <trkpt lat="32.783197" lon="34.993526">
        <ele>308.0</ele>
        <time>2012-01-25T20:06:14Z</time>
      </trkpt>
      <trkpt lat="32.783144" lon="34.993585">
        <ele>308.0</ele>
        <time>2012-01-25T20:06:17Z</time>
      </trkpt>
      <trkpt lat="32.783044" lon="34.993696">
        <ele>308.0</ele>
        <time>2012-01-25T20:06:22Z</time>
      </trkpt>
      <trkpt lat="32.782934" lon="34.993797">
        <ele>308.0</ele>
        <time>2012-01-25T20:06:29Z</time>
      </trkpt>
      <trkpt lat="32.782808" lon="34.993897">
        <ele>309.0</ele>
        <time>2012-01-25T20:06:35Z</time>
      </trkpt>
      <trkpt lat="32.782758" lon="34.99395">
        <ele>309.0</ele>
        <time>2012-01-25T20:06:37Z</time>
      </trkpt>
      <trkpt lat="32.782564" lon="34.99411">
        <ele>311.0</ele>
        <time>2012-01-25T20:06:47Z</time>
      </trkpt>
      <trkpt lat="32.782505" lon="34.994154">
        <ele>311.0</ele>
        <time>2012-01-25T20:06:50Z</time>
      </trkpt>
      <trkpt lat="32.782329" lon="34.994298">
        <ele>313.0</ele>
        <time>2012-01-25T20:06:58Z</time>
      </trkpt>
      <trkpt lat="32.782271" lon="34.994352">
        <ele>313.0</ele>
        <time>2012-01-25T20:07:02Z</time>
      </trkpt>
      <trkpt lat="32.782211" lon="34.994417">
        <ele>314.0</ele>
        <time>2012-01-25T20:07:05Z</time>
      </trkpt>
      <trkpt lat="32.782036" lon="34.994606">
        <ele>315.0</ele>
        <time>2012-01-25T20:07:13Z</time>
      </trkpt>
      <trkpt lat="32.781976" lon="34.99468">
        <ele>316.0</ele>
        <time>2012-01-25T20:07:17Z</time>
      </trkpt>
      <trkpt lat="32.781851" lon="34.994814">
        <ele>317.0</ele>
        <time>2012-01-25T20:07:22Z</time>
      </trkpt>
      <trkpt lat="32.781787" lon="34.994877">
        <ele>317.0</ele>
        <time>2012-01-25T20:07:26Z</time>
      </trkpt>
      <trkpt lat="32.781724" lon="34.994938">
        <ele>318.0</ele>
        <time>2012-01-25T20:07:29Z</time>
      </trkpt>
      <trkpt lat="32.7816" lon="34.995057">
        <ele>319.0</ele>
        <time>2012-01-25T20:07:34Z</time>
      </trkpt>
      <trkpt lat="32.781536" lon="34.995121">
        <ele>319.0</ele>
        <time>2012-01-25T20:07:38Z</time>
      </trkpt>
      <trkpt lat="32.781479" lon="34.995178">
        <ele>319.0</ele>
        <time>2012-01-25T20:07:40Z</time>
      </trkpt>
      <trkpt lat="32.781368" lon="34.995297">
        <ele>320.0</ele>
        <time>2012-01-25T20:07:46Z</time>
      </trkpt>
      <trkpt lat="32.781313" lon="34.995358">
        <ele>320.0</ele>
        <time>2012-01-25T20:07:49Z</time>
      </trkpt>
      <trkpt lat="32.781254" lon="34.995419">
        <ele>321.0</ele>
        <time>2012-01-25T20:07:52Z</time>
      </trkpt>
      <trkpt lat="32.781128" lon="34.995532">
        <ele>321.0</ele>
        <time>2012-01-25T20:07:58Z</time>
      </trkpt>
      <trkpt lat="32.781062" lon="34.995595">
        <ele>322.0</ele>
        <time>2012-01-25T20:08:02Z</time>
      </trkpt>
      <trkpt lat="32.781001" lon="34.995652">
        <ele>322.0</ele>
        <time>2012-01-25T20:08:05Z</time>
      </trkpt>
      <trkpt lat="32.781001" lon="34.995652">
        <time>2012-01-25T20:08:16Z</time>
      </trkpt>
    </trkseg>
    <trkseg>
      <trkpt lat="32.781001" lon="34.995652">
        <time>2012-01-25T20:08:16Z</time>
      </trkpt>
      <trkpt lat="32.780689" lon="34.995943">
        <ele>323.0</ele>
        <time>2012-01-25T20:08:20Z</time>
      </trkpt>
      <trkpt lat="32.780633" lon="34.996016">
        <ele>323.0</ele>
        <time>2012-01-25T20:08:23Z</time>
      </trkpt>
      <trkpt lat="32.780579" lon="34.996089">
        <ele>323.0</ele>
        <time>2012-01-25T20:08:26Z</time>
      </trkpt>
      <trkpt lat="32.780458" lon="34.996222">
        <ele>324.0</ele>
        <time>2012-01-25T20:08:32Z</time>
      </trkpt>
      <trkpt lat="32.78039" lon="34.996286">
        <ele>324.0</ele>
        <time>2012-01-25T20:08:35Z</time>
      </trkpt>
      <trkpt lat="32.780322" lon="34.996351">
        <ele>324.0</ele>
        <time>2012-01-25T20:08:37Z</time>
      </trkpt>
      <trkpt lat="32.780194" lon="34.996467">
        <ele>325.0</ele>
        <time>2012-01-25T20:08:43Z</time>
      </trkpt>
      <trkpt lat="32.78014" lon="34.996533">
        <ele>325.0</ele>
        <time>2012-01-25T20:08:47Z</time>
      </trkpt>
      <trkpt lat="32.780087" lon="34.996599">
        <ele>325.0</ele>
        <time>2012-01-25T20:08:49Z</time>
      </trkpt>
      <trkpt lat="32.77998" lon="34.996731">
        <ele>326.0</ele>
        <time>2012-01-25T20:08:56Z</time>
      </trkpt>
      <trkpt lat="32.77993" lon="34.996796">
        <ele>327.0</ele>
        <time>2012-01-25T20:08:59Z</time>
      </trkpt>
      <trkpt lat="32.779883" lon="34.996861">
        <ele>327.0</ele>
        <time>2012-01-25T20:09:02Z</time>
      </trkpt>
      <trkpt lat="32.779782" lon="34.996983">
        <ele>328.0</ele>
        <time>2012-01-25T20:09:08Z</time>
      </trkpt>
      <trkpt lat="32.779733" lon="34.997042">
        <ele>328.0</ele>
        <time>2012-01-25T20:09:10Z</time>
      </trkpt>
      <trkpt lat="32.779687" lon="34.997106">
        <ele>329.0</ele>
        <time>2012-01-25T20:09:13Z</time>
      </trkpt>
      <trkpt lat="32.779606" lon="34.997261">
        <ele>330.0</ele>
        <time>2012-01-25T20:09:19Z</time>
      </trkpt>
      <trkpt lat="32.779414" lon="34.997511">
        <ele>332.0</ele>
        <time>2012-01-25T20:09:31Z</time>
      </trkpt>
      <trkpt lat="32.779371" lon="34.997578">
        <ele>333.0</ele>
        <time>2012-01-25T20:09:34Z</time>
      </trkpt>
      <trkpt lat="32.779324" lon="34.997643">
        <ele>333.0</ele>
        <time>2012-01-25T20:09:38Z</time>
      </trkpt>
      <trkpt lat="32.779225" lon="34.99777">
        <ele>335.0</ele>
        <time>2012-01-25T20:09:44Z</time>
      </trkpt>
      <trkpt lat="32.779169" lon="34.997833">
        <ele>335.0</ele>
        <time>2012-01-25T20:09:46Z</time>
      </trkpt>
      <trkpt lat="32.779009" lon="34.998019">
        <ele>337.0</ele>
        <time>2012-01-25T20:09:55Z</time>
      </trkpt>
      <trkpt lat="32.778958" lon="34.998084">
        <ele>338.0</ele>
        <time>2012-01-25T20:09:59Z</time>
      </trkpt>
      <trkpt lat="32.778812" lon="34.99828">
        <ele>340.0</ele>
        <time>2012-01-25T20:10:07Z</time>
      </trkpt>
      <trkpt lat="32.778766" lon="34.998352">
        <ele>340.0</ele>
        <time>2012-01-25T20:10:11Z</time>
      </trkpt>
      <trkpt lat="32.778724" lon="34.998424">
        <ele>341.0</ele>
        <time>2012-01-25T20:10:13Z</time>
      </trkpt>
      <trkpt lat="32.778642" lon="34.99858">
        <ele>342.0</ele>
        <time>2012-01-25T20:10:20Z</time>
      </trkpt>
      <trkpt lat="32.778488" lon="34.998858">
        <ele>345.0</ele>
        <time>2012-01-25T20:10:32Z</time>
      </trkpt>
      <trkpt lat="32.778453" lon="34.998939">
        <ele>345.0</ele>
        <time>2012-01-25T20:10:35Z</time>
      </trkpt>
      <trkpt lat="32.778416" lon="34.99902">
        <ele>346.0</ele>
        <time>2012-01-25T20:10:37Z</time>
      </trkpt>
      <trkpt lat="32.778336" lon="34.999186">
        <ele>347.0</ele>
        <time>2012-01-25T20:10:44Z</time>
      </trkpt>
      <trkpt lat="32.778293" lon="34.999268">
        <ele>348.0</ele>
        <time>2012-01-25T20:10:47Z</time>
      </trkpt>
      <trkpt lat="32.778241" lon="34.999348">
        <ele>348.0</ele>
        <time>2012-01-25T20:10:50Z</time>
      </trkpt>
      <trkpt lat="32.778141" lon="34.999507">
        <ele>349.0</ele>
        <time>2012-01-25T20:10:56Z</time>
      </trkpt>
      <trkpt lat="32.778085" lon="34.99958">
        <ele>349.0</ele>
        <time>2012-01-25T20:10:58Z</time>
      </trkpt>
      <trkpt lat="32.778027" lon="34.999652">
        <ele>350.0</ele>
        <time>2012-01-25T20:11:02Z</time>
      </trkpt>
      <trkpt lat="32.777913" lon="34.999806">
        <ele>351.0</ele>
        <time>2012-01-25T20:11:08Z</time>
      </trkpt>
      <trkpt lat="32.777801" lon="34.99993">
        <ele>352.0</ele>
        <time>2012-01-25T20:11:12Z</time>
      </trkpt>
      <trkpt lat="32.777669" lon="35.000089">
        <ele>359.0</ele>
        <time>2012-01-25T20:11:16Z</time>
      </trkpt>
      <trkpt lat="32.777647" lon="35.000267">
        <ele>360.0</ele>
        <time>2012-01-25T20:11:20Z</time>
      </trkpt>
      <trkpt lat="32.777608" lon="35.000436">
        <ele>361.0</ele>
        <time>2012-01-25T20:11:24Z</time>
      </trkpt>
      <trkpt lat="32.777557" lon="35.000541">
        <ele>362.0</ele>
        <time>2012-01-25T20:11:25Z</time>
      </trkpt>
      <trkpt lat="32.777363" lon="35.000835">
        <ele>364.0</ele>
        <time>2012-01-25T20:11:31Z</time>
      </trkpt>
      <trkpt lat="32.77726" lon="35.001008">
        <ele>365.0</ele>
        <time>2012-01-25T20:11:35Z</time>
      </trkpt>
      <trkpt lat="32.777149" lon="35.001157">
        <ele>367.0</ele>
        <time>2012-01-25T20:11:39Z</time>
      </trkpt>
      <trkpt lat="32.777086" lon="35.001221">
        <ele>369.0</ele>
        <time>2012-01-25T20:11:42Z</time>
      </trkpt>
      <trkpt lat="32.776981" lon="35.001346">
        <ele>369.0</ele>
        <time>2012-01-25T20:11:47Z</time>
      </trkpt>
      <trkpt lat="32.776981" lon="35.001346">
        <time>2012-01-25T20:11:58Z</time>
      </trkpt>
    </trkseg>
    <trkseg>
      <trkpt lat="32.776981" lon="35.001346">
        <time>2012-01-25T20:13:29Z</time>
      </trkpt>
      <trkpt lat="32.776772" lon="35.001477">
        <ele>373.0</ele>
        <time>2012-01-25T20:13:31Z</time>
      </trkpt>
      <trkpt lat="32.776714" lon="35.00152">
        <ele>373.0</ele>
        <time>2012-01-25T20:13:33Z</time>
      </trkpt>
      <trkpt lat="32.776577" lon="35.001611">
        <ele>374.0</ele>
        <time>2012-01-25T20:13:39Z</time>
      </trkpt>
      <trkpt lat="32.776461" lon="35.001724">
        <ele>376.0</ele>
        <time>2012-01-25T20:13:42Z</time>
      </trkpt>
      <trkpt lat="32.776227" lon="35.00189">
        <ele>378.0</ele>
        <time>2012-01-25T20:13:48Z</time>
      </trkpt>
      <trkpt lat="32.776048" lon="35.001991">
        <ele>379.0</ele>
        <time>2012-01-25T20:13:50Z</time>
      </trkpt>
      <trkpt lat="32.775857" lon="35.00208">
        <ele>379.0</ele>
        <time>2012-01-25T20:13:55Z</time>
      </trkpt>
      <trkpt lat="32.775573" lon="35.002145">
        <ele>379.0</ele>
        <time>2012-01-25T20:14:00Z</time>
      </trkpt>
      <trkpt lat="32.775407" lon="35.002083">
        <ele>379.0</ele>
        <time>2012-01-25T20:14:04Z</time>
      </trkpt>
      <trkpt lat="32.775251" lon="35.001999">
        <ele>379.0</ele>
        <time>2012-01-25T20:14:07Z</time>
      </trkpt>
      <trkpt lat="32.775174" lon="35.001954">
        <ele>379.0</ele>
        <time>2012-01-25T20:14:10Z</time>
      </trkpt>
      <trkpt lat="32.774814" lon="35.001764">
        <ele>379.0</ele>
        <time>2012-01-25T20:14:19Z</time>
      </trkpt>
      <trkpt lat="32.774665" lon="35.001692">
        <ele>379.0</ele>
        <time>2012-01-25T20:14:23Z</time>
      </trkpt>
      <trkpt lat="32.774595" lon="35.001657">
        <ele>379.0</ele>
        <time>2012-01-25T20:14:26Z</time>
      </trkpt>
      <trkpt lat="32.774365" lon="35.001659">
        <ele>378.0</ele>
        <time>2012-01-25T20:14:32Z</time>
      </trkpt>
      <trkpt lat="32.774303" lon="35.001819">
        <ele>378.0</ele>
        <time>2012-01-25T20:14:35Z</time>
      </trkpt>
      <trkpt lat="32.774274" lon="35.001921">
        <ele>378.0</ele>
        <time>2012-01-25T20:14:39Z</time>
      </trkpt>
      <trkpt lat="32.774245" lon="35.00201">
        <ele>378.0</ele>
        <time>2012-01-25T20:14:42Z</time>
      </trkpt>
      <trkpt lat="32.774165" lon="35.002167">
        <ele>378.0</ele>
        <time>2012-01-25T20:14:48Z</time>
      </trkpt>
      <trkpt lat="32.774055" lon="35.002285">
        <ele>378.0</ele>
        <time>2012-01-25T20:14:54Z</time>
      </trkpt>
      <trkpt lat="32.77399" lon="35.002339">
        <ele>378.0</ele>
        <time>2012-01-25T20:14:58Z</time>
      </trkpt>
      <trkpt lat="32.773932" lon="35.002378">
        <ele>379.0</ele>
        <time>2012-01-25T20:15:00Z</time>
      </trkpt>
      <trkpt lat="32.773754" lon="35.002474">
        <ele>379.0</ele>
        <time>2012-01-25T20:15:09Z</time>
      </trkpt>
      <trkpt lat="32.773622" lon="35.002533">
        <ele>379.0</ele>
        <time>2012-01-25T20:15:15Z</time>
      </trkpt>
      <trkpt lat="32.773485" lon="35.002607">
        <ele>379.0</ele>
        <time>2012-01-25T20:15:22Z</time>
      </trkpt>
      <trkpt lat="32.773354" lon="35.002727">
        <ele>380.0</ele>
        <time>2012-01-25T20:15:28Z</time>
      </trkpt>
      <trkpt lat="32.773289" lon="35.002802">
        <ele>380.0</ele>
        <time>2012-01-25T20:15:30Z</time>
      </trkpt>
      <trkpt lat="32.773245" lon="35.002857">
        <ele>380.0</ele>
        <time>2012-01-25T20:15:33Z</time>
      </trkpt>
      <trkpt lat="32.773113" lon="35.003027">
        <ele>380.0</ele>
        <time>2012-01-25T20:15:39Z</time>
      </trkpt>
      <trkpt lat="32.773033" lon="35.00315">
        <ele>381.0</ele>
        <time>2012-01-25T20:15:43Z</time>
      </trkpt>
      <trkpt lat="32.772958" lon="35.003281">
        <ele>381.0</ele>
        <time>2012-01-25T20:15:47Z</time>
      </trkpt>
      <trkpt lat="32.772888" lon="35.003435">
        <ele>381.0</ele>
        <time>2012-01-25T20:15:50Z</time>
      </trkpt>
      <trkpt lat="32.772837" lon="35.003617">
        <ele>383.0</ele>
        <time>2012-01-25T20:15:55Z</time>
      </trkpt>
      <trkpt lat="32.772796" lon="35.003819">
        <ele>385.0</ele>
        <time>2012-01-25T20:15:58Z</time>
      </trkpt>
      <trkpt lat="32.772769" lon="35.004023">
        <ele>386.0</ele>
        <time>2012-01-25T20:16:03Z</time>
      </trkpt>
      <trkpt lat="32.772745" lon="35.004225">
        <ele>386.0</ele>
        <time>2012-01-25T20:16:07Z</time>
      </trkpt>
      <trkpt lat="32.772731" lon="35.004441">
        <ele>387.0</ele>
        <time>2012-01-25T20:16:11Z</time>
      </trkpt>
      <trkpt lat="32.77269" lon="35.004651">
        <ele>387.0</ele>
        <time>2012-01-25T20:16:15Z</time>
      </trkpt>
      <trkpt lat="32.772626" lon="35.004839">
        <ele>388.0</ele>
        <time>2012-01-25T20:16:18Z</time>
      </trkpt>
      <trkpt lat="32.772535" lon="35.004985">
        <ele>389.0</ele>
        <time>2012-01-25T20:16:23Z</time>
      </trkpt>
      <trkpt lat="32.772436" lon="35.005112">
        <ele>389.0</ele>
        <time>2012-01-25T20:16:27Z</time>
      </trkpt>
      <trkpt lat="32.772329" lon="35.005229">
        <ele>389.0</ele>
        <time>2012-01-25T20:16:31Z</time>
      </trkpt>
      <trkpt lat="32.772221" lon="35.005339">
        <ele>389.0</ele>
        <time>2012-01-25T20:16:34Z</time>
      </trkpt>
      <trkpt lat="32.77211" lon="35.005444">
        <ele>389.0</ele>
        <time>2012-01-25T20:16:38Z</time>
      </trkpt>
      <trkpt lat="32.771989" lon="35.005548">
        <ele>389.0</ele>
        <time>2012-01-25T20:16:43Z</time>
      </trkpt>
      <trkpt lat="32.771925" lon="35.005601">
        <ele>389.0</ele>
        <time>2012-01-25T20:16:45Z</time>
      </trkpt>
      <trkpt lat="32.771732" lon="35.005769">
        <ele>390.0</ele>
        <time>2012-01-25T20:16:50Z</time>
      </trkpt>
      <trkpt lat="32.771481" lon="35.005968">
        <ele>390.0</ele>
        <time>2012-01-25T20:16:59Z</time>
      </trkpt>
      <trkpt lat="32.771354" lon="35.006059">
        <ele>390.0</ele>
        <time>2012-01-25T20:17:03Z</time>
      </trkpt>
      <trkpt lat="32.771215" lon="35.006143">
        <ele>391.0</ele>
        <time>2012-01-25T20:17:07Z</time>
      </trkpt>
      <trkpt lat="32.77114" lon="35.006181">
        <ele>391.0</ele>
        <time>2012-01-25T20:17:09Z</time>
      </trkpt>
      <trkpt lat="32.770866" lon="35.006194">
        <ele>392.0</ele>
        <time>2012-01-25T20:17:15Z</time>
      </trkpt>
      <trkpt lat="32.770689" lon="35.006113">
        <ele>392.0</ele>
        <time>2012-01-25T20:17:19Z</time>
      </trkpt>
      <trkpt lat="32.770366" lon="35.00626">
        <ele>396.0</ele>
        <time>2012-01-25T20:17:27Z</time>
      </trkpt>
      <trkpt lat="32.770251" lon="35.006362">
        <ele>397.0</ele>
        <time>2012-01-25T20:17:31Z</time>
      </trkpt>
      <trkpt lat="32.770149" lon="35.006487">
        <ele>397.0</ele>
        <time>2012-01-25T20:17:34Z</time>
      </trkpt>
      <trkpt lat="32.770076" lon="35.006644">
        <ele>397.0</ele>
        <time>2012-01-25T20:17:38Z</time>
      </trkpt>
      <trkpt lat="32.770024" lon="35.006804">
        <ele>397.0</ele>
        <time>2012-01-25T20:17:43Z</time>
      </trkpt>
      <trkpt lat="32.769895" lon="35.006882">
        <ele>397.0</ele>
        <time>2012-01-25T20:17:48Z</time>
      </trkpt>
      <trkpt lat="32.769615" lon="35.00691">
        <ele>397.0</ele>
        <time>2012-01-25T20:17:59Z</time>
      </trkpt>
      <trkpt lat="32.769336" lon="35.007018">
        <ele>397.0</ele>
        <time>2012-01-25T20:18:10Z</time>
      </trkpt>
      <trkpt lat="32.7691" lon="35.007162">
        <ele>398.0</ele>
        <time>2012-01-25T20:18:19Z</time>
      </trkpt>
      <trkpt lat="32.769028" lon="35.007207">
        <ele>398.0</ele>
        <time>2012-01-25T20:18:23Z</time>
      </trkpt>
      <trkpt lat="32.768959" lon="35.007259">
        <ele>398.0</ele>
        <time>2012-01-25T20:18:25Z</time>
      </trkpt>
      <trkpt lat="32.768826" lon="35.007369">
        <ele>398.0</ele>
        <time>2012-01-25T20:18:32Z</time>
      </trkpt>
      <trkpt lat="32.768764" lon="35.007417">
        <ele>398.0</ele>
        <time>2012-01-25T20:18:35Z</time>
      </trkpt>
      <trkpt lat="32.768701" lon="35.007463">
        <ele>399.0</ele>
        <time>2012-01-25T20:18:38Z</time>
      </trkpt>
      <trkpt lat="32.768572" lon="35.00756">
        <ele>399.0</ele>
        <time>2012-01-25T20:18:44Z</time>
      </trkpt>
      <trkpt lat="32.768509" lon="35.007615">
        <ele>399.0</ele>
        <time>2012-01-25T20:18:46Z</time>
      </trkpt>
      <trkpt lat="32.768443" lon="35.007674">
        <ele>399.0</ele>
        <time>2012-01-25T20:18:50Z</time>
      </trkpt>
      <trkpt lat="32.768376" lon="35.007732">
        <ele>399.0</ele>
        <time>2012-01-25T20:18:52Z</time>
      </trkpt>
      <trkpt lat="32.768251" lon="35.007857">
        <ele>400.0</ele>
        <time>2012-01-25T20:18:58Z</time>
      </trkpt>
      <trkpt lat="32.768189" lon="35.007921">
        <ele>400.0</ele>
        <time>2012-01-25T20:19:01Z</time>
      </trkpt>
      <trkpt lat="32.768065" lon="35.008044">
        <ele>400.0</ele>
        <time>2012-01-25T20:19:08Z</time>
      </trkpt>
      <trkpt lat="32.768003" lon="35.008115">
        <ele>401.0</ele>
        <time>2012-01-25T20:19:11Z</time>
      </trkpt>
      <trkpt lat="32.767917" lon="35.008394">
        <ele>401.0</ele>
        <time>2012-01-25T20:19:19Z</time>
      </trkpt>
      <trkpt lat="32.767903" lon="35.008485">
        <ele>401.0</ele>
        <time>2012-01-25T20:19:22Z</time>
      </trkpt>
      <trkpt lat="32.767892" lon="35.008578">
        <ele>401.0</ele>
        <time>2012-01-25T20:19:26Z</time>
      </trkpt>
      <trkpt lat="32.767845" lon="35.008854">
        <ele>402.0</ele>
        <time>2012-01-25T20:19:34Z</time>
      </trkpt>
      <trkpt lat="32.767824" lon="35.008949">
        <ele>402.0</ele>
        <time>2012-01-25T20:19:37Z</time>
      </trkpt>
      <trkpt lat="32.767774" lon="35.00913">
        <ele>403.0</ele>
        <time>2012-01-25T20:19:44Z</time>
      </trkpt>
      <trkpt lat="32.767699" lon="35.00948">
        <ele>404.0</ele>
        <time>2012-01-25T20:19:55Z</time>
      </trkpt>
      <trkpt lat="32.767685" lon="35.009564">
        <ele>405.0</ele>
        <time>2012-01-25T20:19:58Z</time>
      </trkpt>
      <trkpt lat="32.767635" lon="35.009796">
        <ele>406.0</ele>
        <time>2012-01-25T20:20:08Z</time>
      </trkpt>
      <trkpt lat="32.767606" lon="35.009864">
        <ele>406.0</ele>
        <time>2012-01-25T20:20:10Z</time>
      </trkpt>
      <trkpt lat="32.767588" lon="35.009941">
        <ele>407.0</ele>
        <time>2012-01-25T20:20:13Z</time>
      </trkpt>
      <trkpt lat="32.767567" lon="35.010023">
        <ele>407.0</ele>
        <time>2012-01-25T20:20:16Z</time>
      </trkpt>
      <trkpt lat="32.767523" lon="35.010186">
        <ele>408.0</ele>
        <time>2012-01-25T20:20:22Z</time>
      </trkpt>
      <trkpt lat="32.767483" lon="35.010354">
        <ele>409.0</ele>
        <time>2012-01-25T20:20:29Z</time>
      </trkpt>
      <trkpt lat="32.767395" lon="35.010605">
        <ele>410.0</ele>
        <time>2012-01-25T20:20:37Z</time>
      </trkpt>
      <trkpt lat="32.767313" lon="35.010788">
        <ele>411.0</ele>
        <time>2012-01-25T20:20:43Z</time>
      </trkpt>
      <trkpt lat="32.767232" lon="35.01095">
        <ele>415.0</ele>
        <time>2012-01-25T20:20:47Z</time>
      </trkpt>
      <trkpt lat="32.767145" lon="35.011098">
        <ele>417.0</ele>
        <time>2012-01-25T20:20:52Z</time>
      </trkpt>
      <trkpt lat="32.767103" lon="35.011155">
        <ele>417.0</ele>
        <time>2012-01-25T20:20:53Z</time>
      </trkpt>
      <trkpt lat="32.767103" lon="35.011155">
        <time>2012-01-25T20:21:05Z</time>
      </trkpt>
    </trkseg>
    <trkseg>
      <trkpt lat="32.767103" lon="35.011155">
        <time>2012-01-25T20:21:15Z</time>
      </trkpt>
      <trkpt lat="32.766888" lon="35.011431">
        <ele>418.0</ele>
        <time>2012-01-25T20:21:18Z</time>
      </trkpt>
      <trkpt lat="32.766823" lon="35.011491">
        <ele>418.0</ele>
        <time>2012-01-25T20:21:21Z</time>
      </trkpt>
      <trkpt lat="32.766763" lon="35.011549">
        <ele>418.0</ele>
        <time>2012-01-25T20:21:24Z</time>
      </trkpt>
      <trkpt lat="32.766656" lon="35.011662">
        <ele>418.0</ele>
        <time>2012-01-25T20:21:30Z</time>
      </trkpt>
      <trkpt lat="32.766548" lon="35.011765">
        <ele>418.0</ele>
        <time>2012-01-25T20:21:36Z</time>
      </trkpt>
      <trkpt lat="32.766488" lon="35.011813">
        <ele>418.0</ele>
        <time>2012-01-25T20:21:39Z</time>
      </trkpt>
      <trkpt lat="32.766372" lon="35.011911">
        <ele>419.0</ele>
        <time>2012-01-25T20:21:45Z</time>
      </trkpt>
      <trkpt lat="32.766311" lon="35.011959">
        <ele>419.0</ele>
        <time>2012-01-25T20:21:48Z</time>
      </trkpt>
      <trkpt lat="32.766198" lon="35.012052">
        <ele>419.0</ele>
        <time>2012-01-25T20:21:54Z</time>
      </trkpt>
      <trkpt lat="32.766144" lon="35.012101">
        <ele>420.0</ele>
        <time>2012-01-25T20:21:57Z</time>
      </trkpt>
      <trkpt lat="32.766084" lon="35.012153">
        <ele>420.0</ele>
        <time>2012-01-25T20:22:00Z</time>
      </trkpt>
      <trkpt lat="32.765905" lon="35.012331">
        <ele>421.0</ele>
        <time>2012-01-25T20:22:09Z</time>
      </trkpt>
      <trkpt lat="32.765851" lon="35.012398">
        <ele>421.0</ele>
        <time>2012-01-25T20:22:12Z</time>
      </trkpt>
      <trkpt lat="32.765747" lon="35.012528">
        <ele>422.0</ele>
        <time>2012-01-25T20:22:18Z</time>
      </trkpt>
      <trkpt lat="32.765696" lon="35.012588">
        <ele>423.0</ele>
        <time>2012-01-25T20:22:21Z</time>
      </trkpt>
      <trkpt lat="32.765646" lon="35.012642">
        <ele>423.0</ele>
        <time>2012-01-25T20:22:24Z</time>
      </trkpt>
      <trkpt lat="32.765545" lon="35.012745">
        <ele>424.0</ele>
        <time>2012-01-25T20:22:30Z</time>
      </trkpt>
      <trkpt lat="32.765492" lon="35.012804">
        <ele>425.0</ele>
        <time>2012-01-25T20:22:33Z</time>
      </trkpt>
      <trkpt lat="32.765482" lon="35.012887">
        <ele>425.0</ele>
        <time>2012-01-25T20:22:36Z</time>
      </trkpt>
      <trkpt lat="32.765429" lon="35.013032">
        <ele>426.0</ele>
        <time>2012-01-25T20:22:43Z</time>
      </trkpt>
      <trkpt lat="32.765402" lon="35.013107">
        <ele>427.0</ele>
        <time>2012-01-25T20:22:46Z</time>
      </trkpt>
      <trkpt lat="32.765378" lon="35.013182">
        <ele>428.0</ele>
        <time>2012-01-25T20:22:48Z</time>
      </trkpt>
      <trkpt lat="32.765298" lon="35.013313">
        <ele>429.0</ele>
        <time>2012-01-25T20:22:54Z</time>
      </trkpt>
      <trkpt lat="32.765262" lon="35.013383">
        <ele>429.0</ele>
        <time>2012-01-25T20:22:57Z</time>
      </trkpt>
      <trkpt lat="32.765218" lon="35.013453">
        <ele>430.0</ele>
        <time>2012-01-25T20:23:00Z</time>
      </trkpt>
      <trkpt lat="32.765136" lon="35.013596">
        <ele>431.0</ele>
        <time>2012-01-25T20:23:06Z</time>
      </trkpt>
      <trkpt lat="32.765094" lon="35.013673">
        <ele>431.0</ele>
        <time>2012-01-25T20:23:10Z</time>
      </trkpt>
      <trkpt lat="32.765049" lon="35.013745">
        <ele>432.0</ele>
        <time>2012-01-25T20:23:12Z</time>
      </trkpt>
      <trkpt lat="32.764954" lon="35.013882">
        <ele>432.0</ele>
        <time>2012-01-25T20:23:18Z</time>
      </trkpt>
      <trkpt lat="32.764894" lon="35.013931">
        <ele>433.0</ele>
        <time>2012-01-25T20:23:21Z</time>
      </trkpt>
      <trkpt lat="32.764852" lon="35.013996">
        <ele>433.0</ele>
        <time>2012-01-25T20:23:24Z</time>
      </trkpt>
      <trkpt lat="32.764852" lon="35.013996">
        <time>2012-01-25T20:23:36Z</time>
      </trkpt>
    </trkseg>
    <trkseg>
      <trkpt lat="32.764852" lon="35.013996">
        <time>2012-01-25T20:23:56Z</time>
      </trkpt>
      <trkpt lat="32.764979" lon="35.014266">
        <ele>437.0</ele>
        <time>2012-01-25T20:23:58Z</time>
      </trkpt>
      <trkpt lat="32.765079" lon="35.01438">
        <ele>438.0</ele>
        <time>2012-01-25T20:24:02Z</time>
      </trkpt>
      <trkpt lat="32.765121" lon="35.014443">
        <ele>438.0</ele>
        <time>2012-01-25T20:24:04Z</time>
      </trkpt>
      <trkpt lat="32.765199" lon="35.014606">
        <ele>439.0</ele>
        <time>2012-01-25T20:24:09Z</time>
      </trkpt>
      <trkpt lat="32.765089" lon="35.014843">
        <ele>440.0</ele>
        <time>2012-01-25T20:24:18Z</time>
      </trkpt>
      <trkpt lat="32.76503" lon="35.014889">
        <ele>440.0</ele>
        <time>2012-01-25T20:24:23Z</time>
      </trkpt>
      <trkpt lat="32.76503" lon="35.014889">
        <time>2012-01-25T20:24:34Z</time>
      </trkpt>
    </trkseg>
    <trkseg>
      <trkpt lat="32.76503" lon="35.014889">
        <time>2012-01-25T20:24:39Z</time>
      </trkpt>
      <trkpt lat="32.764811" lon="35.01514">
        <ele>443.0</ele>
        <time>2012-01-25T20:24:42Z</time>
      </trkpt>
      <trkpt lat="32.764894" lon="35.015349">
        <ele>444.0</ele>
        <time>2012-01-25T20:24:51Z</time>
      </trkpt>
      <trkpt lat="32.764948" lon="35.015406">
        <ele>444.0</ele>
        <time>2012-01-25T20:24:53Z</time>
      </trkpt>
      <trkpt lat="32.765223" lon="35.015497">
        <ele>445.0</ele>
        <time>2012-01-25T20:25:04Z</time>
      </trkpt>
      <trkpt lat="32.765236" lon="35.015597">
        <ele>446.0</ele>
        <time>2012-01-25T20:25:08Z</time>
      </trkpt>
      <trkpt lat="32.765229" lon="35.015763">
        <ele>446.0</ele>
        <time>2012-01-25T20:25:12Z</time>
      </trkpt>
      <trkpt lat="32.765223" lon="35.015841">
        <ele>447.0</ele>
        <time>2012-01-25T20:25:14Z</time>
      </trkpt>
      <trkpt lat="32.765222" lon="35.016014">
        <ele>447.0</ele>
        <time>2012-01-25T20:25:19Z</time>
      </trkpt>
      <trkpt lat="32.765222" lon="35.016014">
        <time>2012-01-25T20:25:31Z</time>
      </trkpt>
    </trkseg>
    <trkseg>
      <trkpt lat="32.765222" lon="35.016014">
        <time>2012-01-25T20:25:54Z</time>
      </trkpt>
      <trkpt lat="32.765222" lon="35.016014">
        <time>2012-01-25T20:26:05Z</time>
      </trkpt>
    </trkseg>
    <trkseg>
      <trkpt lat="32.765222" lon="35.016014">
        <time>2012-01-25T20:27:40Z</time>
      </trkpt>
      <trkpt lat="32.765222" lon="35.016014">
        <time>2012-01-25T20:27:51Z</time>
      </trkpt>
    </trkseg>
    <trkseg>
      <trkpt lat="32.765222" lon="35.016014">
        <time>2012-01-25T20:30:14Z</time>
      </trkpt>
      <trkpt lat="32.765481" lon="35.016012">
        <ele>452.0</ele>
        <time>2012-01-25T20:30:25Z</time>
      </trkpt>
      <trkpt lat="32.765481" lon="35.016012">
        <time>2012-01-25T20:30:36Z</time>
      </trkpt>
    </trkseg>
    <trkseg>
      <trkpt lat="32.765481" lon="35.016012">
        <time>2012-01-25T20:31:05Z</time>
      </trkpt>
      <trkpt lat="32.765481" lon="35.016012">
        <time>2012-01-25T20:31:16Z</time>
      </trkpt>
    </trkseg>
    <trkseg>
      <trkpt lat="32.765481" lon="35.016012">
        <time>2012-01-25T20:31:20Z</time>
      </trkpt>
      <trkpt lat="32.765481" lon="35.016012">
        <time>2012-01-25T20:31:32Z</time>
      </trkpt>
    </trkseg>
    <trkseg>
      <trkpt lat="32.765481" lon="35.016012">
        <time>2012-01-25T20:31:35Z</time>
      </trkpt>
      <trkpt lat="32.765282" lon="35.015982">
        <ele>453.0</ele>
        <time>2012-01-25T20:31:40Z</time>
      </trkpt>
      <trkpt lat="32.765215" lon="35.015938">
        <ele>453.0</ele>
        <time>2012-01-25T20:31:44Z</time>
      </trkpt>
      <trkpt lat="32.765147" lon="35.015888">
        <ele>453.0</ele>
        <time>2012-01-25T20:31:48Z</time>
      </trkpt>
      <trkpt lat="32.765102" lon="35.015826">
        <ele>453.0</ele>
        <time>2012-01-25T20:31:50Z</time>
      </trkpt>
      <trkpt lat="32.765068" lon="35.015747">
        <ele>453.0</ele>
        <time>2012-01-25T20:31:53Z</time>
      </trkpt>
      <trkpt lat="32.765062" lon="35.015547">
        <ele>453.0</ele>
        <time>2012-01-25T20:32:00Z</time>
      </trkpt>
      <trkpt lat="32.764997" lon="35.015337">
        <ele>453.0</ele>
        <time>2012-01-25T20:32:11Z</time>
      </trkpt>
      <trkpt lat="32.764931" lon="35.015316">
        <ele>453.0</ele>
        <time>2012-01-25T20:32:13Z</time>
      </trkpt>
      <trkpt lat="32.764799" lon="35.015276">
        <ele>453.0</ele>
        <time>2012-01-25T20:32:19Z</time>
      </trkpt>
      <trkpt lat="32.764742" lon="35.015238">
        <ele>454.0</ele>
        <time>2012-01-25T20:32:23Z</time>
      </trkpt>
      <trkpt lat="32.764725" lon="35.015162">
        <ele>454.0</ele>
        <time>2012-01-25T20:32:26Z</time>
      </trkpt>
      <trkpt lat="32.76491" lon="35.014882">
        <ele>455.0</ele>
        <time>2012-01-25T20:32:32Z</time>
      </trkpt>
      <trkpt lat="32.765155" lon="35.014608">
        <ele>455.0</ele>
        <time>2012-01-25T20:32:35Z</time>
      </trkpt>
      <trkpt lat="32.765195" lon="35.014258">
        <ele>454.0</ele>
        <time>2012-01-25T20:32:40Z</time>
      </trkpt>
      <trkpt lat="32.765235" lon="35.014023">
        <ele>453.0</ele>
        <time>2012-01-25T20:32:44Z</time>
      </trkpt>
      <trkpt lat="32.765412" lon="35.013783">
        <ele>453.0</ele>
        <time>2012-01-25T20:32:48Z</time>
      </trkpt>
      <trkpt lat="32.765572" lon="35.013501">
        <ele>454.0</ele>
        <time>2012-01-25T20:32:52Z</time>
      </trkpt>
      <trkpt lat="32.765728" lon="35.013207">
        <ele>455.0</ele>
        <time>2012-01-25T20:32:56Z</time>
      </trkpt>
      <trkpt lat="32.765897" lon="35.012874">
        <ele>456.0</ele>
        <time>2012-01-25T20:33:00Z</time>
      </trkpt>
      <trkpt lat="32.766079" lon="35.012588">
        <ele>456.0</ele>
        <time>2012-01-25T20:33:04Z</time>
      </trkpt>
      <trkpt lat="32.766265" lon="35.012301">
        <ele>456.0</ele>
        <time>2012-01-25T20:33:08Z</time>
      </trkpt>
      <trkpt lat="32.766486" lon="35.012067">
        <ele>456.0</ele>
        <time>2012-01-25T20:33:12Z</time>
      </trkpt>
      <trkpt lat="32.76674" lon="35.011863">
        <ele>456.0</ele>
        <time>2012-01-25T20:33:16Z</time>
      </trkpt>
      <trkpt lat="32.766924" lon="35.011688">
        <ele>456.0</ele>
        <time>2012-01-25T20:33:19Z</time>
      </trkpt>
      <trkpt lat="32.76714" lon="35.011403">
        <ele>456.0</ele>
        <time>2012-01-25T20:33:28Z</time>
      </trkpt>
      <trkpt lat="32.767242" lon="35.011277">
        <ele>456.0</ele>
        <time>2012-01-25T20:33:32Z</time>
      </trkpt>
      <trkpt lat="32.767352" lon="35.011128">
        <ele>456.0</ele>
        <time>2012-01-25T20:33:37Z</time>
      </trkpt>
      <trkpt lat="32.76756" lon="35.010847">
        <ele>456.0</ele>
        <time>2012-01-25T20:33:43Z</time>
      </trkpt>
      <trkpt lat="32.767702" lon="35.010636">
        <ele>456.0</ele>
        <time>2012-01-25T20:33:46Z</time>
      </trkpt>
      <trkpt lat="32.767848" lon="35.010315">
        <ele>456.0</ele>
        <time>2012-01-25T20:33:51Z</time>
      </trkpt>
      <trkpt lat="32.76796" lon="35.010013">
        <ele>456.0</ele>
        <time>2012-01-25T20:33:56Z</time>
      </trkpt>
      <trkpt lat="32.768053" lon="35.009677">
        <ele>456.0</ele>
        <time>2012-01-25T20:33:59Z</time>
      </trkpt>
      <trkpt lat="32.768127" lon="35.009304">
        <ele>456.0</ele>
        <time>2012-01-25T20:34:04Z</time>
      </trkpt>
      <trkpt lat="32.768189" lon="35.008896">
        <ele>456.0</ele>
        <time>2012-01-25T20:34:08Z</time>
      </trkpt>
      <trkpt lat="32.76823" lon="35.008583">
        <ele>454.0</ele>
        <time>2012-01-25T20:34:12Z</time>
      </trkpt>
      <trkpt lat="32.768253" lon="35.008356">
        <ele>454.0</ele>
        <time>2012-01-25T20:34:14Z</time>
      </trkpt>
      <trkpt lat="32.768296" lon="35.008116">
        <ele>453.0</ele>
        <time>2012-01-25T20:34:19Z</time>
      </trkpt>
      <trkpt lat="32.768461" lon="35.007794">
        <ele>453.0</ele>
        <time>2012-01-25T20:34:24Z</time>
      </trkpt>
      <trkpt lat="32.768641" lon="35.007578">
        <ele>453.0</ele>
        <time>2012-01-25T20:34:26Z</time>
      </trkpt>
      <trkpt lat="32.76884" lon="35.007436">
        <ele>452.0</ele>
        <time>2012-01-25T20:34:30Z</time>
      </trkpt>
      <trkpt lat="32.769126" lon="35.007258">
        <ele>451.0</ele>
        <time>2012-01-25T20:34:35Z</time>
      </trkpt>
      <trkpt lat="32.769308" lon="35.007092">
        <ele>450.0</ele>
        <time>2012-01-25T20:34:40Z</time>
      </trkpt>
      <trkpt lat="32.769448" lon="35.006924">
        <ele>449.0</ele>
        <time>2012-01-25T20:34:43Z</time>
      </trkpt>
      <trkpt lat="32.769609" lon="35.00681">
        <ele>449.0</ele>
        <time>2012-01-25T20:34:47Z</time>
      </trkpt>
      <trkpt lat="32.769682" lon="35.006789">
        <ele>449.0</ele>
        <time>2012-01-25T20:34:51Z</time>
      </trkpt>
      <trkpt lat="32.76984" lon="35.006769">
        <ele>448.0</ele>
        <time>2012-01-25T20:34:56Z</time>
      </trkpt>
      <trkpt lat="32.769938" lon="35.006919">
        <ele>447.0</ele>
        <time>2012-01-25T20:35:00Z</time>
      </trkpt>
      <trkpt lat="32.769851" lon="35.00736">
        <ele>441.0</ele>
        <time>2012-01-25T20:35:04Z</time>
      </trkpt>
      <trkpt lat="32.769616" lon="35.007642">
        <ele>434.0</ele>
        <time>2012-01-25T20:35:07Z</time>
      </trkpt>
      <trkpt lat="32.769307" lon="35.007789">
        <ele>429.0</ele>
        <time>2012-01-25T20:35:11Z</time>
      </trkpt>
      <trkpt lat="32.769027" lon="35.007989">
        <ele>426.0</ele>
        <time>2012-01-25T20:35:16Z</time>
      </trkpt>
      <trkpt lat="32.768878" lon="35.008324">
        <ele>425.0</ele>
        <time>2012-01-25T20:35:20Z</time>
      </trkpt>
      <trkpt lat="32.76885" lon="35.00859">
        <ele>424.0</ele>
        <time>2012-01-25T20:35:23Z</time>
      </trkpt>
      <trkpt lat="32.768801" lon="35.008924">
        <ele>424.0</ele>
        <time>2012-01-25T20:35:27Z</time>
      </trkpt>
      <trkpt lat="32.769334" lon="35.009064">
        <ele>426.0</ele>
        <time>2012-01-25T20:35:31Z</time>
      </trkpt>
      <trkpt lat="32.770354" lon="35.008754">
        <ele>425.0</ele>
        <time>2012-01-25T20:35:35Z</time>
      </trkpt>
      <trkpt lat="32.770986" lon="35.00845">
        <ele>416.0</ele>
        <time>2012-01-25T20:35:39Z</time>
      </trkpt>
      <trkpt lat="32.771569" lon="35.008458">
        <ele>414.0</ele>
        <time>2012-01-25T20:35:44Z</time>
      </trkpt>
      <trkpt lat="32.77185" lon="35.008522">
        <ele>413.0</ele>
        <time>2012-01-25T20:35:45Z</time>
      </trkpt>
      <trkpt lat="32.772684" lon="35.008804">
        <ele>412.0</ele>
        <time>2012-01-25T20:35:52Z</time>
      </trkpt>
      <trkpt lat="32.772818" lon="35.008846">
        <ele>413.0</ele>
        <time>2012-01-25T20:35:53Z</time>
      </trkpt>
      <trkpt lat="32.773547" lon="35.009061">
        <ele>415.0</ele>
        <time>2012-01-25T20:36:00Z</time>
      </trkpt>
      <trkpt lat="32.773642" lon="35.009184">
        <ele>414.0</ele>
        <time>2012-01-25T20:36:03Z</time>
      </trkpt>
      <trkpt lat="32.773715" lon="35.009611">
        <ele>410.0</ele>
        <time>2012-01-25T20:36:07Z</time>
      </trkpt>
      <trkpt lat="32.77366" lon="35.010317">
        <ele>405.0</ele>
        <time>2012-01-25T20:36:11Z</time>
      </trkpt>
      <trkpt lat="32.77365" lon="35.010562">
        <ele>403.0</ele>
        <time>2012-01-25T20:36:16Z</time>
      </trkpt>
      <trkpt lat="32.77365" lon="35.010562">
        <time>2012-01-25T20:36:27Z</time>
      </trkpt>
    </trkseg>
    <trkseg>
      <trkpt lat="32.77365" lon="35.010562">
        <time>2012-01-25T20:36:46Z</time>
      </trkpt>
      <trkpt lat="32.773613" lon="35.010787">
        <ele>398.0</ele>
        <time>2012-01-25T20:36:47Z</time>
      </trkpt>
      <trkpt lat="32.77347" lon="35.011015">
        <ele>390.0</ele>
        <time>2012-01-25T20:36:50Z</time>
      </trkpt>
      <trkpt lat="32.773312" lon="35.011148">
        <ele>384.0</ele>
        <time>2012-01-25T20:36:55Z</time>
      </trkpt>
      <trkpt lat="32.773154" lon="35.01127">
        <ele>381.0</ele>
        <time>2012-01-25T20:36:59Z</time>
      </trkpt>
      <trkpt lat="32.772987" lon="35.011395">
        <ele>380.0</ele>
        <time>2012-01-25T20:37:03Z</time>
      </trkpt>
      <trkpt lat="32.772905" lon="35.011458">
        <ele>381.0</ele>
        <time>2012-01-25T20:37:05Z</time>
      </trkpt>
      <trkpt lat="32.772698" lon="35.011655">
        <ele>378.0</ele>
        <time>2012-01-25T20:37:11Z</time>
      </trkpt>
      <trkpt lat="32.772634" lon="35.011712">
        <ele>377.0</ele>
        <time>2012-01-25T20:37:13Z</time>
      </trkpt>
      <trkpt lat="32.772546" lon="35.011866">
        <ele>376.0</ele>
        <time>2012-01-25T20:37:17Z</time>
      </trkpt>
      <trkpt lat="32.772547" lon="35.012107">
        <ele>374.0</ele>
        <time>2012-01-25T20:37:22Z</time>
      </trkpt>
      <trkpt lat="32.772574" lon="35.012353">
        <ele>372.0</ele>
        <time>2012-01-25T20:37:26Z</time>
      </trkpt>
      <trkpt lat="32.772646" lon="35.012596">
        <ele>372.0</ele>
        <time>2012-01-25T20:37:30Z</time>
      </trkpt>
      <trkpt lat="32.772839" lon="35.012864">
        <ele>368.0</ele>
        <time>2012-01-25T20:37:35Z</time>
      </trkpt>
      <trkpt lat="32.773135" lon="35.013132">
        <ele>359.0</ele>
        <time>2012-01-25T20:37:39Z</time>
      </trkpt>
      <trkpt lat="32.773285" lon="35.013348">
        <ele>356.0</ele>
        <time>2012-01-25T20:37:43Z</time>
      </trkpt>
      <trkpt lat="32.773217" lon="35.013425">
        <ele>356.0</ele>
        <time>2012-01-25T20:37:46Z</time>
      </trkpt>
      <trkpt lat="32.773163" lon="35.013469">
        <ele>356.0</ele>
        <time>2012-01-25T20:37:48Z</time>
      </trkpt>
      <trkpt lat="32.772984" lon="35.013577">
        <ele>355.0</ele>
        <time>2012-01-25T20:37:54Z</time>
      </trkpt>
      <trkpt lat="32.772869" lon="35.01366">
        <ele>354.0</ele>
        <time>2012-01-25T20:37:58Z</time>
      </trkpt>
      <trkpt lat="32.772795" lon="35.013699">
        <ele>354.0</ele>
        <time>2012-01-25T20:38:01Z</time>
      </trkpt>
      <trkpt lat="32.772717" lon="35.013712">
        <ele>354.0</ele>
        <time>2012-01-25T20:38:04Z</time>
      </trkpt>
      <trkpt lat="32.772498" lon="35.013743">
        <ele>353.0</ele>
        <time>2012-01-25T20:38:11Z</time>
      </trkpt>
      <trkpt lat="32.772357" lon="35.013761">
        <ele>352.0</ele>
        <time>2012-01-25T20:38:15Z</time>
      </trkpt>
      <trkpt lat="32.772079" lon="35.01379">
        <ele>351.0</ele>
        <time>2012-01-25T20:38:23Z</time>
      </trkpt>
      <trkpt lat="32.771943" lon="35.01379">
        <ele>351.0</ele>
        <time>2012-01-25T20:38:27Z</time>
      </trkpt>
      <trkpt lat="32.771806" lon="35.013771">
        <ele>350.0</ele>
        <time>2012-01-25T20:38:31Z</time>
      </trkpt>
      <trkpt lat="32.771739" lon="35.013753">
        <ele>350.0</ele>
        <time>2012-01-25T20:38:33Z</time>
      </trkpt>
      <trkpt lat="32.771534" lon="35.013688">
        <ele>350.0</ele>
        <time>2012-01-25T20:38:40Z</time>
      </trkpt>
      <trkpt lat="32.771451" lon="35.013694">
        <ele>350.0</ele>
        <time>2012-01-25T20:38:47Z</time>
      </trkpt>
      <trkpt lat="32.771451" lon="35.013694">
        <time>2012-01-25T20:38:58Z</time>
      </trkpt>
    </trkseg>
    <trkseg>
      <trkpt lat="32.771451" lon="35.013694">
        <time>2012-01-25T20:39:08Z</time>
      </trkpt>
    </trkseg>
  </trk>
</gpx>